RAM214 SBGR-GMMN
Flight info
| Callsign | RAM214 |
|---|---|
| Flight time | 8h 2m |
| Altitude | 37000 |
| Route | VUMEV UZ14 AMBET UN857 DELAX/N0486F390 UN857 GUNET N857 DEREV/N0480F400 N857 LZR N871 KORAL UG5 SONSO UN871 ESS UG5 VONCI |
| Aircraft | B789/H-SDE1E2E3FGHIJ2J3J4J5M1RWXY/LB1D1 |
Departure
| Time | 2026-05-06 03:44 |
|---|---|
| Airport | São Paulo/Guarulhos–Governor André Franco Montoro International Airport (SBGR) |
Arrival
| Time | 2026-05-06 11:47 |
|---|---|
| Airport | Mohammed V International Airport (GMMN) |
| Time | Latitude | Longitude | Altitude | Speed | Heading |
|---|---|---|---|---|---|
| 2026-05-06 02:44 | -23.42835 | -46.47937 | 2470 ft | 0 kts | 265° |
| 2026-05-06 03:34 | -23.42834 | -46.47932 | 2473 ft | 2 kts | 263° |
| 2026-05-06 03:35 | -23.42833 | -46.47914 | 2470 ft | 2 kts | 266° |
| 2026-05-06 03:35 | -23.42832 | -46.47896 | 2470 ft | 2 kts | 263° |
| 2026-05-06 03:35 | -23.42827 | -46.47879 | 2470 ft | 2 kts | 230° |
| 2026-05-06 03:35 | -23.42814 | -46.47867 | 2471 ft | 2 kts | 217° |
| 2026-05-06 03:36 | -23.42799 | -46.47859 | 2470 ft | 2 kts | 190° |
| 2026-05-06 03:36 | -23.42783 | -46.47859 | 2470 ft | 2 kts | 172° |
| 2026-05-06 03:36 | -23.42776 | -46.47860 | 2472 ft | 0 kts | 171° |
| 2026-05-06 03:38 | -23.42778 | -46.47860 | 2470 ft | 2 kts | 171° |
| 2026-05-06 03:39 | -23.42807 | -46.47855 | 2471 ft | 7 kts | 170° |
| 2026-05-06 03:39 | -23.42868 | -46.47842 | 2473 ft | 11 kts | 169° |
| 2026-05-06 03:39 | -23.42940 | -46.47828 | 2474 ft | 10 kts | 169° |
| 2026-05-06 03:39 | -23.43007 | -46.47813 | 2470 ft | 9 kts | 168° |
| 2026-05-06 03:40 | -23.43071 | -46.47799 | 2472 ft | 10 kts | 176° |
| 2026-05-06 03:40 | -23.43104 | -46.47816 | 2472 ft | 4 kts | 226° |
| 2026-05-06 03:40 | -23.43118 | -46.47845 | 2472 ft | 7 kts | 244° |
| 2026-05-06 03:40 | -23.43142 | -46.47920 | 2474 ft | 13 kts | 253° |
| 2026-05-06 03:41 | -23.43167 | -46.48009 | 2474 ft | 12 kts | 253° |
| 2026-05-06 03:41 | -23.43187 | -46.48084 | 2475 ft | 9 kts | 253° |
| 2026-05-06 03:41 | -23.43202 | -46.48138 | 2476 ft | 6 kts | 253° |
| 2026-05-06 03:41 | -23.43215 | -46.48185 | 2478 ft | 8 kts | 254° |
| 2026-05-06 03:42 | -23.43233 | -46.48254 | 2476 ft | 9 kts | 253° |
| 2026-05-06 03:42 | -23.43258 | -46.48317 | 2478 ft | 9 kts | 232° |
| 2026-05-06 03:42 | -23.43311 | -46.48351 | 2477 ft | 11 kts | 193° |
| 2026-05-06 03:42 | -23.43396 | -46.48332 | 2471 ft | 12 kts | 148° |
| 2026-05-06 03:43 | -23.43412 | -46.48281 | 2472 ft | 6 kts | 84° |
| 2026-05-06 03:43 | -23.43406 | -46.48255 | 2468 ft | 0 kts | 75° |
| 2026-05-06 03:43 | -23.43385 | -46.48173 | 2469 ft | 32 kts | 74° |
| 2026-05-06 03:43 | -23.43269 | -46.47745 | 2470 ft | 86 kts | 73° |
| 2026-05-06 03:44 | -23.43054 | -46.46945 | 2471 ft | 133 kts | 73° |
| 2026-05-06 03:44 | -23.42751 | -46.45834 | 2468 ft | 173 kts | 73° |
| 2026-05-06 03:44 | -23.42393 | -46.44480 | 2673 ft | 190 kts | 80° |
| 2026-05-06 03:44 | -23.42033 | -46.43137 | 3309 ft | 191 kts | 74° |
| 2026-05-06 03:45 | -23.41605 | -46.41775 | 4001 ft | 189 kts | 69° |
| 2026-05-06 03:45 | -23.41164 | -46.40377 | 4422 ft | 205 kts | 72° |
| 2026-05-06 03:45 | -23.40711 | -46.38807 | 4626 ft | 230 kts | 73° |
| 2026-05-06 03:45 | -23.40199 | -46.37036 | 4813 ft | 259 kts | 72° |
| 2026-05-06 03:46 | -23.39389 | -46.35268 | 5467 ft | 263 kts | 53° |
| 2026-05-06 03:46 | -23.38342 | -46.33623 | 6178 ft | 267 kts | 61° |
| 2026-05-06 03:46 | -23.37421 | -46.31852 | 6894 ft | 270 kts | 61° |
| 2026-05-06 03:46 | -23.36453 | -46.30117 | 7571 ft | 274 kts | 58° |
| 2026-05-06 03:47 | -23.35412 | -46.28359 | 8237 ft | 278 kts | 58° |
| 2026-05-06 03:47 | -23.34364 | -46.26574 | 8894 ft | 282 kts | 58° |
| 2026-05-06 03:47 | -23.33313 | -46.24755 | 9576 ft | 286 kts | 58° |
| 2026-05-06 03:47 | -23.32248 | -46.22909 | 10248 ft | 290 kts | 58° |
| 2026-05-06 03:48 | -23.31142 | -46.21001 | 10476 ft | 310 kts | 58° |
| 2026-05-06 03:48 | -23.29939 | -46.18931 | 10512 ft | 336 kts | 58° |
| 2026-05-06 03:48 | -23.28671 | -46.16747 | 10981 ft | 343 kts | 58° |
| 2026-05-06 03:48 | -23.27405 | -46.14567 | 11585 ft | 347 kts | 58° |
| 2026-05-06 03:49 | -23.26111 | -46.12337 | 12189 ft | 351 kts | 58° |
| 2026-05-06 03:49 | -23.24800 | -46.10083 | 12794 ft | 354 kts | 58° |
| 2026-05-06 03:49 | -23.23476 | -46.07806 | 13394 ft | 358 kts | 59° |
| 2026-05-06 03:49 | -23.22100 | -46.05527 | 13986 ft | 363 kts | 52° |
| 2026-05-06 03:50 | -23.20190 | -46.03731 | 14504 ft | 368 kts | 30° |
| 2026-05-06 03:50 | -23.17824 | -46.02641 | 14973 ft | 373 kts | 20° |
| 2026-05-06 03:50 | -23.15364 | -46.01703 | 15500 ft | 376 kts | 19° |
| 2026-05-06 03:50 | -23.12909 | -46.00815 | 15997 ft | 379 kts | 16° |
| 2026-05-06 03:51 | -23.10295 | -46.00340 | 16455 ft | 383 kts | 7° |
| 2026-05-06 03:51 | -23.07633 | -46.00022 | 16957 ft | 386 kts | 6° |
| 2026-05-06 03:51 | -23.04953 | -45.99725 | 17446 ft | 389 kts | 6° |
| 2026-05-06 03:51 | -23.02251 | -45.99397 | 17932 ft | 392 kts | 7° |
| 2026-05-06 03:52 | -22.99529 | -45.99051 | 18410 ft | 395 kts | 6° |
| 2026-05-06 03:52 | -22.96783 | -45.98714 | 18827 ft | 399 kts | 6° |
| 2026-05-06 03:52 | -22.94020 | -45.98384 | 19236 ft | 401 kts | 6° |
| 2026-05-06 03:52 | -22.91271 | -45.98050 | 19650 ft | 404 kts | 7° |
| 2026-05-06 03:53 | -22.88539 | -45.97341 | 20038 ft | 406 kts | 24° |
| 2026-05-06 03:53 | -22.86096 | -45.95809 | 20414 ft | 409 kts | 35° |
| 2026-05-06 03:53 | -22.83751 | -45.94041 | 20780 ft | 412 kts | 36° |
| 2026-05-06 03:53 | -22.81408 | -45.92241 | 21167 ft | 414 kts | 35° |
| 2026-05-06 03:54 | -22.79036 | -45.90446 | 21530 ft | 417 kts | 34° |
| 2026-05-06 03:54 | -22.76640 | -45.88657 | 21910 ft | 420 kts | 34° |
| 2026-05-06 03:54 | -22.74231 | -45.86849 | 22282 ft | 422 kts | 35° |
| 2026-05-06 03:54 | -22.71813 | -45.85023 | 22625 ft | 425 kts | 35° |
| 2026-05-06 03:55 | -22.69412 | -45.83213 | 22973 ft | 427 kts | 35° |
| 2026-05-06 03:55 | -22.66965 | -45.81376 | 23315 ft | 430 kts | 35° |
| 2026-05-06 03:55 | -22.64501 | -45.79528 | 23630 ft | 433 kts | 35° |
| 2026-05-06 03:55 | -22.62020 | -45.77663 | 23932 ft | 435 kts | 35° |
| 2026-05-06 03:56 | -22.59527 | -45.75790 | 24196 ft | 438 kts | 35° |
| 2026-05-06 03:56 | -22.57017 | -45.73905 | 24443 ft | 440 kts | 35° |
| 2026-05-06 03:56 | -22.54493 | -45.72013 | 24683 ft | 443 kts | 35° |
| 2026-05-06 03:56 | -22.51950 | -45.70106 | 24923 ft | 446 kts | 35° |
| 2026-05-06 03:57 | -22.49394 | -45.68190 | 25172 ft | 448 kts | 35° |
| 2026-05-06 03:57 | -22.46859 | -45.66291 | 25412 ft | 451 kts | 35° |
| 2026-05-06 03:57 | -22.44273 | -45.64355 | 25643 ft | 453 kts | 35° |
| 2026-05-06 03:57 | -22.41670 | -45.62407 | 25887 ft | 456 kts | 35° |
| 2026-05-06 03:58 | -22.39058 | -45.60453 | 26136 ft | 458 kts | 35° |
| 2026-05-06 03:58 | -22.36432 | -45.58490 | 26385 ft | 460 kts | 35° |
| 2026-05-06 03:58 | -22.33791 | -45.56516 | 26621 ft | 463 kts | 35° |
| 2026-05-06 03:58 | -22.31139 | -45.54535 | 26859 ft | 465 kts | 35° |
| 2026-05-06 03:59 | -22.28508 | -45.52570 | 27113 ft | 467 kts | 35° |
| 2026-05-06 03:59 | -22.25826 | -45.50568 | 27366 ft | 470 kts | 35° |
| 2026-05-06 03:59 | -22.23134 | -45.48560 | 27596 ft | 472 kts | 35° |
| 2026-05-06 03:59 | -22.20424 | -45.46539 | 27861 ft | 474 kts | 35° |
| 2026-05-06 04:00 | -22.17697 | -45.44507 | 28118 ft | 477 kts | 35° |
| 2026-05-06 04:00 | -22.14965 | -45.42472 | 28347 ft | 479 kts | 35° |
| 2026-05-06 04:00 | -22.12211 | -45.40421 | 28575 ft | 482 kts | 35° |
| 2026-05-06 04:00 | -22.09446 | -45.38363 | 28837 ft | 484 kts | 35° |
| 2026-05-06 04:01 | -22.06706 | -45.36326 | 29060 ft | 487 kts | 35° |
| 2026-05-06 04:01 | -22.03923 | -45.34243 | 29309 ft | 488 kts | 38° |
| 2026-05-06 04:01 | -22.01250 | -45.31971 | 29514 ft | 490 kts | 39° |
| 2026-05-06 04:01 | -21.98563 | -45.29707 | 29777 ft | 492 kts | 39° |
| 2026-05-06 04:02 | -21.95853 | -45.27437 | 30028 ft | 494 kts | 39° |
| 2026-05-06 04:02 | -21.93143 | -45.25150 | 30262 ft | 496 kts | 39° |
| 2026-05-06 04:02 | -21.90425 | -45.22847 | 30463 ft | 499 kts | 39° |
| 2026-05-06 04:02 | -21.87684 | -45.20535 | 30671 ft | 501 kts | 39° |
| 2026-05-06 04:03 | -21.84972 | -45.18256 | 30868 ft | 503 kts | 39° |
| 2026-05-06 04:03 | -21.82212 | -45.15934 | 31090 ft | 504 kts | 39° |
| 2026-05-06 04:03 | -21.79446 | -45.13602 | 31303 ft | 507 kts | 39° |
| 2026-05-06 04:03 | -21.76665 | -45.11261 | 31502 ft | 508 kts | 39° |
| 2026-05-06 04:04 | -21.73872 | -45.08914 | 31703 ft | 510 kts | 39° |
| 2026-05-06 04:04 | -21.71070 | -45.06560 | 31905 ft | 512 kts | 39° |
| 2026-05-06 04:04 | -21.68260 | -45.04198 | 32116 ft | 514 kts | 38° |
| 2026-05-06 04:04 | -21.65433 | -45.01824 | 32339 ft | 516 kts | 38° |
| 2026-05-06 04:05 | -21.62598 | -44.99446 | 32524 ft | 518 kts | 38° |
| 2026-05-06 04:05 | -21.59788 | -44.97090 | 32730 ft | 520 kts | 38° |
| 2026-05-06 04:05 | -21.56934 | -44.94697 | 32903 ft | 522 kts | 38° |
| 2026-05-06 04:05 | -21.54063 | -44.92291 | 33119 ft | 524 kts | 38° |
| 2026-05-06 04:06 | -21.51183 | -44.89879 | 33284 ft | 526 kts | 38° |
| 2026-05-06 04:06 | -21.48293 | -44.87460 | 33470 ft | 528 kts | 38° |
| 2026-05-06 04:06 | -21.45392 | -44.85033 | 33659 ft | 530 kts | 38° |
| 2026-05-06 04:06 | -21.42478 | -44.82597 | 33823 ft | 532 kts | 38° |
| 2026-05-06 04:07 | -21.39557 | -44.80156 | 33998 ft | 533 kts | 38° |
| 2026-05-06 04:07 | -21.36662 | -44.77737 | 34177 ft | 535 kts | 38° |
| 2026-05-06 04:07 | -21.33718 | -44.75279 | 34329 ft | 537 kts | 38° |
| 2026-05-06 04:07 | -21.30765 | -44.72812 | 34491 ft | 538 kts | 38° |
| 2026-05-06 04:08 | -21.27810 | -44.70345 | 34671 ft | 539 kts | 38° |
| 2026-05-06 04:08 | -21.24852 | -44.67878 | 34865 ft | 539 kts | 38° |
| 2026-05-06 04:08 | -21.21894 | -44.65412 | 35049 ft | 539 kts | 38° |
| 2026-05-06 04:08 | -21.18931 | -44.62943 | 35242 ft | 540 kts | 38° |
| 2026-05-06 04:09 | -21.15970 | -44.60477 | 35431 ft | 540 kts | 38° |
| 2026-05-06 04:09 | -21.13044 | -44.58041 | 35626 ft | 540 kts | 38° |
| 2026-05-06 04:09 | -21.10078 | -44.55574 | 35810 ft | 540 kts | 38° |
| 2026-05-06 04:09 | -21.07108 | -44.53104 | 35972 ft | 541 kts | 38° |
| 2026-05-06 04:10 | -21.04133 | -44.50631 | 36164 ft | 541 kts | 38° |
| 2026-05-06 04:10 | -21.01164 | -44.48165 | 36353 ft | 541 kts | 38° |
| 2026-05-06 04:10 | -20.98191 | -44.45696 | 36520 ft | 541 kts | 38° |
| 2026-05-06 04:10 | -20.95260 | -44.43264 | 36683 ft | 541 kts | 38° |
| 2026-05-06 04:11 | -20.92287 | -44.40801 | 36861 ft | 541 kts | 38° |
| 2026-05-06 04:11 | -20.89304 | -44.38332 | 37029 ft | 541 kts | 38° |
| 2026-05-06 04:11 | -20.86329 | -44.35869 | 37208 ft | 541 kts | 38° |
| 2026-05-06 04:11 | -20.83347 | -44.33400 | 37232 ft | 544 kts | 38° |
| 2026-05-06 04:12 | -20.77367 | -44.28456 | 37241 ft | 541 kts | 38° |
| 2026-05-06 04:12 | -20.71471 | -44.23585 | 37233 ft | 538 kts | 38° |
| 2026-05-06 04:13 | -20.65551 | -44.18700 | 37236 ft | 537 kts | 38° |
| 2026-05-06 04:13 | -20.59657 | -44.13788 | 37237 ft | 537 kts | 39° |
| 2026-05-06 04:14 | -20.53822 | -44.08829 | 37232 ft | 536 kts | 38° |
| 2026-05-06 04:14 | -20.47983 | -44.03971 | 37234 ft | 535 kts | 37° |
| 2026-05-06 04:15 | -20.42064 | -43.99167 | 37233 ft | 535 kts | 37° |
| 2026-05-06 04:15 | -20.36175 | -43.94327 | 37233 ft | 534 kts | 37° |
| 2026-05-06 04:16 | -20.30275 | -43.89519 | 37234 ft | 534 kts | 37° |
| 2026-05-06 04:16 | -20.24418 | -43.84731 | 37254 ft | 534 kts | 37° |
| 2026-05-06 04:17 | -20.18514 | -43.79919 | 37245 ft | 534 kts | 37° |
| 2026-05-06 04:17 | -20.12617 | -43.75114 | 37242 ft | 534 kts | 37° |
| 2026-05-06 04:18 | -20.06727 | -43.70320 | 37239 ft | 533 kts | 37° |
| 2026-05-06 04:18 | -20.00874 | -43.65561 | 37231 ft | 533 kts | 37° |
| 2026-05-06 04:19 | -19.94986 | -43.60778 | 37229 ft | 533 kts | 37° |
| 2026-05-06 04:19 | -19.89097 | -43.55998 | 37228 ft | 532 kts | 37° |
| 2026-05-06 04:20 | -19.83225 | -43.51221 | 37218 ft | 532 kts | 37° |
| 2026-05-06 04:20 | -19.77394 | -43.46482 | 37218 ft | 531 kts | 36° |
| 2026-05-06 04:21 | -19.71521 | -43.41714 | 37216 ft | 531 kts | 36° |
| 2026-05-06 04:21 | -19.65660 | -43.36959 | 37211 ft | 530 kts | 36° |
| 2026-05-06 04:22 | -19.59807 | -43.32215 | 37208 ft | 529 kts | 36° |
| 2026-05-06 04:23 | -19.51088 | -43.25154 | 37208 ft | 527 kts | 36° |
| 2026-05-06 04:23 | -19.45252 | -43.20434 | 37201 ft | 527 kts | 36° |
| 2026-05-06 04:24 | -19.39428 | -43.15728 | 37199 ft | 527 kts | 36° |
| 2026-05-06 04:24 | -19.33643 | -43.11058 | 37197 ft | 526 kts | 36° |
| 2026-05-06 04:25 | -19.27830 | -43.06370 | 37195 ft | 525 kts | 36° |
| 2026-05-06 04:25 | -19.22015 | -43.01686 | 37216 ft | 526 kts | 37° |
| 2026-05-06 04:26 | -19.16151 | -42.96961 | 37210 ft | 533 kts | 37° |
| 2026-05-06 04:26 | -19.10278 | -42.92240 | 37211 ft | 535 kts | 37° |
| 2026-05-06 04:27 | -19.04357 | -42.87481 | 37209 ft | 534 kts | 37° |
| 2026-05-06 04:27 | -18.98443 | -42.82732 | 37190 ft | 533 kts | 37° |
| 2026-05-06 04:28 | -18.92531 | -42.77990 | 37191 ft | 533 kts | 37° |
| 2026-05-06 04:28 | -18.86675 | -42.73300 | 37212 ft | 532 kts | 37° |
| 2026-05-06 04:29 | -18.80784 | -42.68586 | 37189 ft | 531 kts | 37° |
| 2026-05-06 04:29 | -18.74897 | -42.63877 | 37205 ft | 530 kts | 37° |
| 2026-05-06 04:30 | -18.69056 | -42.59212 | 37190 ft | 530 kts | 37° |
| 2026-05-06 04:30 | -18.63177 | -42.54518 | 37202 ft | 531 kts | 37° |
| 2026-05-06 04:31 | -18.57287 | -42.49818 | 37199 ft | 531 kts | 37° |
| 2026-05-06 04:31 | -18.51394 | -42.45123 | 37203 ft | 531 kts | 37° |
| 2026-05-06 04:32 | -18.45539 | -42.40459 | 37189 ft | 531 kts | 37° |
| 2026-05-06 04:32 | -18.39642 | -42.35767 | 37195 ft | 531 kts | 36° |
| 2026-05-06 04:33 | -18.33745 | -42.31080 | 37194 ft | 531 kts | 36° |
| 2026-05-06 04:33 | -18.27852 | -42.26400 | 37187 ft | 531 kts | 36° |
| 2026-05-06 04:34 | -18.21992 | -42.21751 | 37185 ft | 531 kts | 36° |
| 2026-05-06 04:34 | -18.16094 | -42.17077 | 37188 ft | 531 kts | 36° |
| 2026-05-06 04:35 | -18.10195 | -42.12405 | 37189 ft | 531 kts | 36° |
| 2026-05-06 04:35 | -18.04299 | -42.07740 | 37188 ft | 530 kts | 36° |
| 2026-05-06 04:36 | -17.98448 | -42.03113 | 37191 ft | 530 kts | 36° |
| 2026-05-06 04:36 | -17.92556 | -41.98460 | 37192 ft | 530 kts | 36° |
| 2026-05-06 04:37 | -17.86671 | -41.93815 | 37191 ft | 529 kts | 36° |
| 2026-05-06 04:37 | -17.80794 | -41.89181 | 37192 ft | 528 kts | 36° |
| 2026-05-06 04:38 | -17.74956 | -41.84581 | 37197 ft | 528 kts | 36° |
| 2026-05-06 04:38 | -17.69077 | -41.79953 | 37196 ft | 528 kts | 36° |
| 2026-05-06 04:39 | -17.63205 | -41.75334 | 37194 ft | 528 kts | 36° |
| 2026-05-06 04:39 | -17.57330 | -41.70718 | 37196 ft | 528 kts | 36° |
| 2026-05-06 04:40 | -17.51494 | -41.66134 | 37195 ft | 527 kts | 36° |
| 2026-05-06 04:40 | -17.45623 | -41.61528 | 37195 ft | 527 kts | 36° |
| 2026-05-06 04:41 | -17.39760 | -41.56931 | 37192 ft | 527 kts | 36° |
| 2026-05-06 04:41 | -17.33896 | -41.52337 | 37184 ft | 526 kts | 36° |
| 2026-05-06 04:42 | -17.28073 | -41.47777 | 37183 ft | 526 kts | 36° |
| 2026-05-06 04:42 | -17.22211 | -41.43193 | 37181 ft | 526 kts | 36° |
| 2026-05-06 04:43 | -17.16343 | -41.38605 | 37184 ft | 527 kts | 36° |
| 2026-05-06 04:43 | -17.10475 | -41.34022 | 37187 ft | 527 kts | 35° |
| 2026-05-06 04:44 | -17.04647 | -41.29474 | 37176 ft | 526 kts | 35° |
| 2026-05-06 04:44 | -16.98776 | -41.24896 | 37179 ft | 527 kts | 35° |
| 2026-05-06 04:45 | -16.92906 | -41.20322 | 37178 ft | 526 kts | 35° |
| 2026-05-06 04:45 | -16.87036 | -41.15753 | 37172 ft | 526 kts | 35° |
| 2026-05-06 04:46 | -16.81168 | -41.11188 | 37172 ft | 526 kts | 35° |
| 2026-05-06 04:46 | -16.75347 | -41.06663 | 37169 ft | 525 kts | 35° |
| 2026-05-06 04:47 | -16.69489 | -41.02113 | 37172 ft | 524 kts | 35° |
| 2026-05-06 04:47 | -16.63637 | -40.97572 | 37170 ft | 525 kts | 35° |
| 2026-05-06 04:48 | -16.57780 | -40.93030 | 37167 ft | 524 kts | 35° |
| 2026-05-06 04:48 | -16.51965 | -40.88523 | 37164 ft | 524 kts | 35° |
| 2026-05-06 04:49 | -16.46113 | -40.83993 | 37158 ft | 524 kts | 35° |
| 2026-05-06 04:49 | -16.40260 | -40.79464 | 37154 ft | 524 kts | 35° |
| 2026-05-06 04:50 | -16.34402 | -40.74935 | 37155 ft | 525 kts | 35° |
| 2026-05-06 04:50 | -16.28579 | -40.70437 | 37151 ft | 524 kts | 34° |
| 2026-05-06 04:51 | -16.22727 | -40.65920 | 37152 ft | 524 kts | 34° |
| 2026-05-06 04:51 | -16.16872 | -40.61404 | 37147 ft | 524 kts | 34° |
| 2026-05-06 04:52 | -16.11016 | -40.56890 | 37149 ft | 523 kts | 34° |
| 2026-05-06 04:52 | -16.05204 | -40.52414 | 37145 ft | 524 kts | 34° |
| 2026-05-06 04:53 | -15.99349 | -40.47908 | 37144 ft | 524 kts | 34° |
| 2026-05-06 04:53 | -15.93488 | -40.43402 | 37146 ft | 523 kts | 34° |
| 2026-05-06 04:54 | -15.87627 | -40.38909 | 37142 ft | 523 kts | 34° |
| 2026-05-06 04:54 | -15.81812 | -40.34449 | 37141 ft | 523 kts | 34° |
| 2026-05-06 04:55 | -15.75958 | -40.29966 | 37136 ft | 523 kts | 34° |
| 2026-05-06 04:55 | -15.70100 | -40.25481 | 37133 ft | 523 kts | 34° |
| 2026-05-06 04:56 | -15.64286 | -40.21034 | 37133 ft | 523 kts | 34° |
| 2026-05-06 04:56 | -15.58431 | -40.16558 | 37128 ft | 523 kts | 34° |
| 2026-05-06 04:57 | -15.52568 | -40.12087 | 37128 ft | 523 kts | 34° |
| 2026-05-06 04:57 | -15.46702 | -40.07617 | 37130 ft | 523 kts | 34° |
| 2026-05-06 04:58 | -15.40831 | -40.03145 | 37125 ft | 523 kts | 34° |
| 2026-05-06 04:58 | -15.35013 | -39.98718 | 37124 ft | 523 kts | 34° |
| 2026-05-06 04:59 | -15.29147 | -39.94257 | 37123 ft | 523 kts | 34° |
| 2026-05-06 04:59 | -15.23282 | -39.89801 | 37124 ft | 523 kts | 34° |
| 2026-05-06 05:00 | -15.17453 | -39.85374 | 37122 ft | 523 kts | 34° |
| 2026-05-06 05:00 | -15.11583 | -39.80920 | 37119 ft | 523 kts | 34° |
| 2026-05-06 05:01 | -15.05718 | -39.76472 | 37116 ft | 523 kts | 34° |
| 2026-05-06 05:01 | -14.99850 | -39.72025 | 37125 ft | 523 kts | 34° |
| 2026-05-06 05:02 | -14.94017 | -39.67622 | 37112 ft | 522 kts | 33° |
| 2026-05-06 05:02 | -14.88141 | -39.63203 | 37110 ft | 522 kts | 33° |
| 2026-05-06 05:03 | -14.82359 | -39.58846 | 37115 ft | 523 kts | 33° |
| 2026-05-06 05:03 | -14.76475 | -39.54424 | 37108 ft | 523 kts | 33° |
| 2026-05-06 05:04 | -14.70633 | -39.50031 | 37102 ft | 523 kts | 33° |
| 2026-05-06 05:04 | -14.64751 | -39.45615 | 37110 ft | 523 kts | 33° |
| 2026-05-06 05:05 | -14.58872 | -39.41201 | 37095 ft | 522 kts | 33° |
| 2026-05-06 05:05 | -14.52992 | -39.36790 | 37091 ft | 522 kts | 33° |
| 2026-05-06 05:06 | -14.47164 | -39.32423 | 37092 ft | 522 kts | 33° |
| 2026-05-06 05:06 | -14.41287 | -39.28020 | 37080 ft | 522 kts | 33° |
| 2026-05-06 05:07 | -14.35414 | -39.23623 | 37092 ft | 521 kts | 33° |
| 2026-05-06 05:07 | -14.29585 | -39.19263 | 37091 ft | 521 kts | 33° |
| 2026-05-06 05:08 | -14.23717 | -39.14876 | 37089 ft | 522 kts | 33° |
| 2026-05-06 05:08 | -14.17840 | -39.10486 | 37086 ft | 522 kts | 33° |
| 2026-05-06 05:09 | -14.11965 | -39.06099 | 37081 ft | 521 kts | 33° |
| 2026-05-06 05:09 | -14.06093 | -39.01718 | 37077 ft | 522 kts | 33° |
| 2026-05-06 05:10 | -14.00256 | -38.97365 | 37073 ft | 521 kts | 33° |
| 2026-05-06 05:10 | -13.94382 | -38.92988 | 37067 ft | 521 kts | 33° |
| 2026-05-06 05:11 | -13.88512 | -38.88617 | 37058 ft | 520 kts | 33° |
| 2026-05-06 05:11 | -13.82695 | -38.84288 | 37062 ft | 519 kts | 33° |
| 2026-05-06 05:12 | -13.76837 | -38.79931 | 37059 ft | 519 kts | 33° |
| 2026-05-06 05:12 | -13.70978 | -38.75576 | 37056 ft | 520 kts | 32° |
| 2026-05-06 05:13 | -13.65113 | -38.71220 | 37052 ft | 520 kts | 32° |
| 2026-05-06 05:13 | -13.59294 | -38.66900 | 37051 ft | 520 kts | 32° |
| 2026-05-06 05:14 | -13.53432 | -38.62551 | 37049 ft | 519 kts | 32° |
| 2026-05-06 05:14 | -13.47577 | -38.58210 | 37048 ft | 519 kts | 32° |
| 2026-05-06 05:15 | -13.41718 | -38.53868 | 37047 ft | 519 kts | 32° |
| 2026-05-06 05:15 | -13.35905 | -38.49564 | 37040 ft | 518 kts | 32° |
| 2026-05-06 05:16 | -13.30055 | -38.45234 | 37039 ft | 518 kts | 32° |
| 2026-05-06 05:16 | -13.24216 | -38.40916 | 37048 ft | 517 kts | 32° |
| 2026-05-06 05:17 | -13.18407 | -38.36622 | 37037 ft | 518 kts | 32° |
| 2026-05-06 05:17 | -13.12571 | -38.32311 | 37043 ft | 517 kts | 32° |
| 2026-05-06 05:18 | -13.06734 | -38.28002 | 37039 ft | 516 kts | 32° |
| 2026-05-06 05:18 | -13.00904 | -38.23701 | 37040 ft | 516 kts | 32° |
| 2026-05-06 05:19 | -12.95118 | -38.19435 | 37038 ft | 516 kts | 32° |
| 2026-05-06 05:19 | -12.89286 | -38.15139 | 37038 ft | 516 kts | 32° |
| 2026-05-06 05:20 | -12.83452 | -38.10842 | 37032 ft | 516 kts | 32° |
| 2026-05-06 05:20 | -12.77615 | -38.06547 | 37041 ft | 517 kts | 32° |
| 2026-05-06 05:21 | -12.71811 | -38.02278 | 37036 ft | 517 kts | 32° |
| 2026-05-06 05:21 | -12.65964 | -37.97980 | 37039 ft | 517 kts | 32° |
| 2026-05-06 05:22 | -12.60123 | -37.93688 | 37036 ft | 517 kts | 32° |
| 2026-05-06 05:22 | -12.54283 | -37.89401 | 37034 ft | 517 kts | 32° |
| 2026-05-06 05:23 | -12.48474 | -37.85138 | 37036 ft | 517 kts | 32° |
| 2026-05-06 05:23 | -12.39714 | -37.78714 | 37031 ft | 516 kts | 32° |
| 2026-05-06 05:24 | -12.33880 | -37.74438 | 37030 ft | 516 kts | 32° |
| 2026-05-06 05:24 | -12.28081 | -37.70191 | 37026 ft | 516 kts | 32° |
| 2026-05-06 05:25 | -12.22252 | -37.65925 | 37030 ft | 515 kts | 32° |
| 2026-05-06 05:25 | -12.16424 | -37.61662 | 37024 ft | 515 kts | 32° |
| 2026-05-06 05:26 | -12.10589 | -37.57395 | 37021 ft | 516 kts | 32° |
| 2026-05-06 05:26 | -12.04797 | -37.53162 | 37021 ft | 515 kts | 32° |
| 2026-05-06 05:27 | -11.98967 | -37.48904 | 37022 ft | 515 kts | 32° |
| 2026-05-06 05:27 | -11.93143 | -37.44653 | 37023 ft | 515 kts | 32° |
| 2026-05-06 05:28 | -11.87308 | -37.40417 | 37022 ft | 514 kts | 31° |
| 2026-05-06 05:28 | -11.81509 | -37.36222 | 37021 ft | 514 kts | 31° |
| 2026-05-06 05:29 | -11.75682 | -37.31998 | 37019 ft | 515 kts | 31° |
| 2026-05-06 05:29 | -11.69834 | -37.27769 | 37020 ft | 516 kts | 31° |
| 2026-05-06 05:30 | -11.64019 | -37.23561 | 37018 ft | 515 kts | 31° |
| 2026-05-06 05:30 | -11.58173 | -37.19336 | 37021 ft | 515 kts | 31° |
| 2026-05-06 05:31 | -11.52336 | -37.15118 | 37014 ft | 514 kts | 31° |
| 2026-05-06 05:31 | -11.46513 | -37.10913 | 37009 ft | 513 kts | 31° |
| 2026-05-06 05:32 | -11.40721 | -37.06733 | 37018 ft | 514 kts | 31° |
| 2026-05-06 05:32 | -11.34881 | -37.02519 | 37018 ft | 515 kts | 31° |
| 2026-05-06 05:33 | -11.29035 | -36.98304 | 37016 ft | 515 kts | 31° |
| 2026-05-06 05:33 | -11.24176 | -36.94802 | 37018 ft | 514 kts | 31° |
| 2026-05-06 05:34 | -11.17396 | -36.89918 | 37011 ft | 513 kts | 31° |
| 2026-05-06 05:34 | -11.11582 | -36.85732 | 37013 ft | 511 kts | 31° |
| 2026-05-06 05:35 | -11.06747 | -36.82253 | 37010 ft | 511 kts | 31° |
| 2026-05-06 05:35 | -11.00939 | -36.78074 | 37007 ft | 511 kts | 31° |
| 2026-05-06 05:36 | -10.94186 | -36.73220 | 37006 ft | 512 kts | 31° |
| 2026-05-06 05:36 | -10.88371 | -36.69041 | 37006 ft | 511 kts | 31° |
| 2026-05-06 05:37 | -10.83543 | -36.65574 | 37003 ft | 511 kts | 31° |
| 2026-05-06 05:37 | -10.76785 | -36.60758 | 37005 ft | 511 kts | 31° |
| 2026-05-06 05:38 | -10.70960 | -36.56610 | 37008 ft | 511 kts | 31° |
| 2026-05-06 05:38 | -10.66130 | -36.53170 | 37006 ft | 510 kts | 31° |
| 2026-05-06 05:39 | -10.60318 | -36.49039 | 37005 ft | 510 kts | 31° |
| 2026-05-06 05:39 | -10.53558 | -36.44231 | 36999 ft | 510 kts | 31° |
| 2026-05-06 05:40 | -10.47752 | -36.40105 | 37001 ft | 509 kts | 31° |
| 2026-05-06 05:40 | -10.42928 | -36.36678 | 36998 ft | 509 kts | 31° |
| 2026-05-06 05:41 | -10.37116 | -36.32551 | 37003 ft | 509 kts | 31° |
| 2026-05-06 05:41 | -10.30370 | -36.27764 | 36998 ft | 509 kts | 31° |
| 2026-05-06 05:42 | -10.25548 | -36.24343 | 37001 ft | 509 kts | 31° |
| 2026-05-06 05:42 | -10.19743 | -36.20227 | 37003 ft | 509 kts | 31° |
| 2026-05-06 05:43 | -10.13940 | -36.16114 | 36999 ft | 508 kts | 31° |
| 2026-05-06 05:43 | -10.08147 | -36.12010 | 37002 ft | 507 kts | 31° |
| 2026-05-06 05:44 | -10.02402 | -36.07942 | 37002 ft | 507 kts | 31° |
| 2026-05-06 05:44 | -9.96611 | -36.03843 | 37000 ft | 508 kts | 31° |
| 2026-05-06 05:45 | -9.90822 | -35.99747 | 37013 ft | 507 kts | 31° |
| 2026-05-06 05:45 | -9.85032 | -35.95652 | 37011 ft | 507 kts | 31° |
| 2026-05-06 05:46 | -9.79281 | -35.91588 | 37010 ft | 507 kts | 31° |
| 2026-05-06 05:46 | -9.73494 | -35.87499 | 37002 ft | 507 kts | 31° |
| 2026-05-06 05:47 | -9.67701 | -35.83407 | 37017 ft | 507 kts | 31° |
| 2026-05-06 05:47 | -9.61911 | -35.79319 | 37020 ft | 507 kts | 31° |
| 2026-05-06 05:48 | -9.56126 | -35.75237 | 37014 ft | 507 kts | 31° |
| 2026-05-06 05:48 | -9.50385 | -35.71187 | 37023 ft | 506 kts | 31° |
| 2026-05-06 05:49 | -9.44612 | -35.67117 | 37013 ft | 506 kts | 31° |
| 2026-05-06 05:49 | -9.38836 | -35.63046 | 37008 ft | 506 kts | 31° |
| 2026-05-06 05:50 | -9.33100 | -35.59005 | 37003 ft | 505 kts | 31° |
| 2026-05-06 05:50 | -9.27334 | -35.54944 | 36996 ft | 505 kts | 31° |
| 2026-05-06 05:51 | -9.21568 | -35.50886 | 36995 ft | 504 kts | 31° |
| 2026-05-06 05:51 | -9.15804 | -35.46830 | 36992 ft | 505 kts | 31° |
| 2026-05-06 05:52 | -9.10068 | -35.42796 | 36993 ft | 505 kts | 31° |
| 2026-05-06 05:52 | -9.04294 | -35.38737 | 36995 ft | 505 kts | 31° |
| 2026-05-06 05:53 | -8.98520 | -35.34680 | 36990 ft | 505 kts | 31° |
| 2026-05-06 05:53 | -8.92747 | -35.30625 | 36989 ft | 506 kts | 31° |
| 2026-05-06 05:54 | -8.86999 | -35.26589 | 36989 ft | 506 kts | 31° |
| 2026-05-06 05:54 | -8.81223 | -35.22535 | 36990 ft | 505 kts | 31° |
| 2026-05-06 05:55 | -8.75452 | -35.18486 | 36978 ft | 505 kts | 31° |
| 2026-05-06 05:55 | -8.69679 | -35.14436 | 36978 ft | 505 kts | 31° |
| 2026-05-06 05:56 | -8.63915 | -35.10396 | 36979 ft | 505 kts | 31° |
| 2026-05-06 05:56 | -8.58190 | -35.06383 | 36977 ft | 504 kts | 31° |
| 2026-05-06 05:57 | -8.52438 | -35.02353 | 36978 ft | 503 kts | 31° |
| 2026-05-06 05:57 | -8.46684 | -34.98325 | 36974 ft | 503 kts | 31° |
| 2026-05-06 05:58 | -8.40928 | -34.94295 | 36973 ft | 504 kts | 31° |
| 2026-05-06 05:58 | -8.35212 | -34.90296 | 36972 ft | 503 kts | 31° |
| 2026-05-06 05:59 | -8.29464 | -34.86275 | 36970 ft | 503 kts | 31° |
| 2026-05-06 05:59 | -8.23706 | -34.82249 | 36976 ft | 504 kts | 31° |
| 2026-05-06 06:00 | -8.17983 | -34.78239 | 36970 ft | 505 kts | 34° |
| 2026-05-06 06:00 | -8.12465 | -34.73818 | 36977 ft | 507 kts | 35° |
| 2026-05-06 06:01 | -8.06940 | -34.69403 | 36977 ft | 507 kts | 36° |
| 2026-05-06 06:01 | -8.01422 | -34.64967 | 36972 ft | 507 kts | 36° |
| 2026-05-06 06:02 | -7.95898 | -34.60546 | 36971 ft | 506 kts | 36° |
| 2026-05-06 06:02 | -7.90425 | -34.56157 | 36969 ft | 505 kts | 36° |
| 2026-05-06 06:03 | -7.84924 | -34.51753 | 36963 ft | 505 kts | 36° |
| 2026-05-06 06:03 | -7.79428 | -34.47352 | 36955 ft | 504 kts | 36° |
| 2026-05-06 06:04 | -7.73722 | -34.43400 | 36984 ft | 499 kts | 24° |
| 2026-05-06 06:04 | -7.67531 | -34.40186 | 36972 ft | 501 kts | 24° |
| 2026-05-06 06:05 | -7.61333 | -34.36961 | 36968 ft | 501 kts | 25° |
| 2026-05-06 06:05 | -7.55145 | -34.33739 | 36966 ft | 501 kts | 24° |
| 2026-05-06 06:06 | -7.48992 | -34.30543 | 36963 ft | 500 kts | 24° |
| 2026-05-06 06:06 | -7.42817 | -34.27330 | 36961 ft | 500 kts | 24° |
| 2026-05-06 06:07 | -7.36632 | -34.24118 | 36965 ft | 501 kts | 24° |
| 2026-05-06 06:07 | -7.30438 | -34.20899 | 36962 ft | 501 kts | 24° |
| 2026-05-06 06:08 | -7.24234 | -34.17678 | 36960 ft | 502 kts | 24° |
| 2026-05-06 06:08 | -7.18074 | -34.14479 | 36964 ft | 501 kts | 24° |
| 2026-05-06 06:09 | -7.11880 | -34.11264 | 36959 ft | 501 kts | 24° |
| 2026-05-06 06:09 | -7.05687 | -34.08051 | 36961 ft | 500 kts | 24° |
| 2026-05-06 06:10 | -6.99504 | -34.04843 | 36959 ft | 500 kts | 24° |
| 2026-05-06 06:10 | -6.93349 | -34.01652 | 36962 ft | 501 kts | 24° |
| 2026-05-06 06:11 | -6.87152 | -33.98439 | 36957 ft | 501 kts | 24° |
| 2026-05-06 06:11 | -6.80962 | -33.95231 | 36958 ft | 500 kts | 24° |
| 2026-05-06 06:12 | -6.74769 | -33.92022 | 36950 ft | 500 kts | 24° |
| 2026-05-06 06:12 | -6.68636 | -33.88845 | 36947 ft | 499 kts | 24° |
| 2026-05-06 06:13 | -6.62461 | -33.85648 | 36950 ft | 499 kts | 24° |
| 2026-05-06 06:13 | -6.56276 | -33.82447 | 36945 ft | 501 kts | 24° |
| 2026-05-06 06:14 | -6.50116 | -33.79259 | 36946 ft | 502 kts | 24° |
| 2026-05-06 06:14 | -6.43903 | -33.76044 | 36947 ft | 502 kts | 24° |
| 2026-05-06 06:15 | -6.37696 | -33.72833 | 36942 ft | 501 kts | 24° |
| 2026-05-06 06:15 | -6.31497 | -33.69629 | 36938 ft | 500 kts | 24° |
| 2026-05-06 06:16 | -6.25303 | -33.66426 | 36939 ft | 501 kts | 24° |
| 2026-05-06 06:16 | -6.19154 | -33.63248 | 36937 ft | 500 kts | 24° |
| 2026-05-06 06:17 | -6.12963 | -33.60050 | 36934 ft | 499 kts | 23° |
| 2026-05-06 06:17 | -6.06792 | -33.56862 | 36931 ft | 499 kts | 23° |
| 2026-05-06 06:18 | -6.00610 | -33.53670 | 36934 ft | 500 kts | 23° |
| 2026-05-06 06:18 | -5.94466 | -33.50498 | 36933 ft | 500 kts | 23° |
| 2026-05-06 06:19 | -5.88292 | -33.47311 | 36933 ft | 499 kts | 23° |
| 2026-05-06 06:19 | -5.82127 | -33.44130 | 36932 ft | 497 kts | 23° |
| 2026-05-06 06:20 | -5.75982 | -33.40960 | 36931 ft | 497 kts | 23° |
| 2026-05-06 06:20 | -5.69875 | -33.37810 | 36927 ft | 497 kts | 23° |
| 2026-05-06 06:21 | -5.63716 | -33.34635 | 36927 ft | 498 kts | 24° |
| 2026-05-06 06:21 | -5.57553 | -33.31458 | 36932 ft | 499 kts | 24° |
| 2026-05-06 06:22 | -5.51380 | -33.28276 | 36935 ft | 499 kts | 24° |
| 2026-05-06 06:22 | -5.45250 | -33.25117 | 36930 ft | 498 kts | 24° |
| 2026-05-06 06:23 | -5.39087 | -33.21942 | 36930 ft | 498 kts | 24° |
| 2026-05-06 06:23 | -5.32909 | -33.18761 | 36930 ft | 499 kts | 24° |
| 2026-05-06 06:24 | -5.26734 | -33.15581 | 36928 ft | 499 kts | 24° |
| 2026-05-06 06:24 | -5.20600 | -33.12423 | 36931 ft | 499 kts | 24° |
| 2026-05-06 06:25 | -5.14438 | -33.09251 | 36931 ft | 497 kts | 24° |
| 2026-05-06 06:26 | -5.05213 | -33.04505 | 36925 ft | 497 kts | 24° |
| 2026-05-06 06:26 | -4.99061 | -33.01341 | 36925 ft | 497 kts | 24° |
| 2026-05-06 06:27 | -4.92964 | -32.98205 | 36926 ft | 495 kts | 24° |
| 2026-05-06 06:27 | -4.86832 | -32.95052 | 36928 ft | 495 kts | 24° |
| 2026-05-06 06:28 | -4.80709 | -32.91904 | 36925 ft | 495 kts | 24° |
| 2026-05-06 06:28 | -4.74622 | -32.88776 | 36925 ft | 495 kts | 24° |
| 2026-05-06 06:29 | -4.68498 | -32.85629 | 36928 ft | 494 kts | 24° |
| 2026-05-06 06:29 | -4.62378 | -32.82484 | 36926 ft | 494 kts | 24° |
| 2026-05-06 06:30 | -4.56255 | -32.79335 | 36926 ft | 494 kts | 24° |
| 2026-05-06 06:30 | -4.50187 | -32.76203 | 36926 ft | 494 kts | 24° |
| 2026-05-06 06:31 | -4.44068 | -32.73054 | 36942 ft | 495 kts | 24° |
| 2026-05-06 06:31 | -4.37946 | -32.69898 | 36944 ft | 495 kts | 24° |
| 2026-05-06 06:32 | -4.31821 | -32.66745 | 36945 ft | 495 kts | 24° |
| 2026-05-06 06:32 | -4.25690 | -32.63587 | 36945 ft | 495 kts | 24° |
| 2026-05-06 06:33 | -4.19612 | -32.60458 | 36946 ft | 494 kts | 24° |
| 2026-05-06 06:33 | -4.13495 | -32.57309 | 36951 ft | 494 kts | 24° |
| 2026-05-06 06:34 | -4.07388 | -32.54166 | 36948 ft | 494 kts | 24° |
| 2026-05-06 06:34 | -4.01279 | -32.51022 | 36950 ft | 493 kts | 24° |
| 2026-05-06 06:35 | -3.95215 | -32.47903 | 36949 ft | 493 kts | 24° |
| 2026-05-06 06:35 | -3.89127 | -32.44771 | 36950 ft | 491 kts | 24° |
| 2026-05-06 06:36 | -3.83053 | -32.41635 | 36947 ft | 492 kts | 25° |
| 2026-05-06 06:36 | -3.77054 | -32.38430 | 36952 ft | 491 kts | 25° |
| 2026-05-06 06:37 | -3.71001 | -32.35253 | 36947 ft | 491 kts | 25° |
| 2026-05-06 06:37 | -3.64962 | -32.32057 | 36949 ft | 491 kts | 25° |
| 2026-05-06 06:38 | -3.58922 | -32.28872 | 36948 ft | 491 kts | 25° |
| 2026-05-06 06:38 | -3.52925 | -32.25706 | 36948 ft | 491 kts | 25° |
| 2026-05-06 06:39 | -3.46882 | -32.22517 | 36949 ft | 491 kts | 25° |
| 2026-05-06 06:39 | -3.40845 | -32.19333 | 36951 ft | 490 kts | 25° |
| 2026-05-06 06:40 | -3.34819 | -32.16153 | 36947 ft | 489 kts | 25° |
| 2026-05-06 06:40 | -3.28841 | -32.13001 | 36940 ft | 488 kts | 25° |
| 2026-05-06 06:41 | -3.22822 | -32.09855 | 36943 ft | 487 kts | 25° |
| 2026-05-06 06:41 | -3.16795 | -32.06755 | 36942 ft | 488 kts | 25° |
| 2026-05-06 06:42 | -3.10810 | -32.03644 | 36941 ft | 487 kts | 25° |
| 2026-05-06 06:42 | -3.04790 | -32.00535 | 36940 ft | 487 kts | 25° |
| 2026-05-06 06:43 | -2.98768 | -31.97414 | 36938 ft | 487 kts | 25° |
| 2026-05-06 06:43 | -2.92746 | -31.94300 | 36942 ft | 487 kts | 26° |
| 2026-05-06 06:44 | -2.86724 | -31.91182 | 36946 ft | 487 kts | 26° |
| 2026-05-06 06:44 | -2.80740 | -31.88086 | 36941 ft | 488 kts | 26° |
| 2026-05-06 06:45 | -2.74708 | -31.84965 | 36940 ft | 488 kts | 26° |
| 2026-05-06 06:45 | -2.68669 | -31.81841 | 36941 ft | 489 kts | 26° |
| 2026-05-06 06:46 | -2.62628 | -31.78717 | 36944 ft | 489 kts | 26° |
| 2026-05-06 06:46 | -2.56616 | -31.75608 | 36938 ft | 490 kts | 26° |
| 2026-05-06 06:47 | -2.50564 | -31.72478 | 36941 ft | 490 kts | 26° |
| 2026-05-06 06:47 | -2.44504 | -31.69345 | 36946 ft | 490 kts | 26° |
| 2026-05-06 06:48 | -2.38445 | -31.66212 | 36948 ft | 491 kts | 26° |
| 2026-05-06 06:48 | -2.32415 | -31.63095 | 36941 ft | 491 kts | 26° |
| 2026-05-06 06:49 | -2.26345 | -31.59957 | 36947 ft | 492 kts | 26° |
| 2026-05-06 06:49 | -2.20264 | -31.56815 | 36945 ft | 492 kts | 26° |
| 2026-05-06 06:50 | -2.14178 | -31.53670 | 36945 ft | 493 kts | 26° |
| 2026-05-06 06:50 | -2.08127 | -31.50542 | 36944 ft | 493 kts | 26° |
| 2026-05-06 06:51 | -2.02027 | -31.47390 | 36949 ft | 494 kts | 26° |
| 2026-05-06 06:51 | -1.95926 | -31.44237 | 36949 ft | 494 kts | 26° |
| 2026-05-06 06:52 | -1.89808 | -31.41077 | 36949 ft | 495 kts | 26° |
| 2026-05-06 06:52 | -1.83724 | -31.37934 | 36947 ft | 496 kts | 27° |
| 2026-05-06 06:53 | -1.77588 | -31.34764 | 36944 ft | 497 kts | 27° |
| 2026-05-06 06:53 | -1.71447 | -31.31593 | 36953 ft | 497 kts | 27° |
| 2026-05-06 06:54 | -1.65300 | -31.28418 | 36954 ft | 497 kts | 27° |
| 2026-05-06 06:54 | -1.59193 | -31.25264 | 36952 ft | 498 kts | 27° |
| 2026-05-06 06:55 | -1.53045 | -31.22089 | 36955 ft | 497 kts | 27° |
| 2026-05-06 06:55 | -1.46895 | -31.18914 | 36952 ft | 497 kts | 27° |
| 2026-05-06 06:56 | -1.40749 | -31.15740 | 36953 ft | 497 kts | 26° |
| 2026-05-06 06:56 | -1.34638 | -31.12585 | 36960 ft | 498 kts | 26° |
| 2026-05-06 06:57 | -1.28484 | -31.09407 | 36961 ft | 498 kts | 26° |
| 2026-05-06 06:57 | -1.22319 | -31.06224 | 36953 ft | 498 kts | 26° |
| 2026-05-06 06:58 | -1.16165 | -31.03048 | 36955 ft | 498 kts | 26° |
| 2026-05-06 06:58 | -1.10046 | -30.99889 | 36957 ft | 498 kts | 26° |
| 2026-05-06 06:59 | -1.03887 | -30.96711 | 36956 ft | 498 kts | 26° |
| 2026-05-06 06:59 | -0.97730 | -30.93532 | 36959 ft | 498 kts | 26° |
| 2026-05-06 07:00 | -0.91572 | -30.90354 | 36958 ft | 498 kts | 27° |
| 2026-05-06 07:00 | -0.85456 | -30.87189 | 36956 ft | 499 kts | 27° |
| 2026-05-06 07:01 | -0.79292 | -30.84002 | 36956 ft | 499 kts | 27° |
| 2026-05-06 07:01 | -0.73127 | -30.80814 | 36959 ft | 499 kts | 27° |
| 2026-05-06 07:02 | -0.66957 | -30.77623 | 36948 ft | 499 kts | 27° |
| 2026-05-06 07:02 | -0.60833 | -30.74457 | 36958 ft | 499 kts | 27° |
| 2026-05-06 07:03 | -0.54660 | -30.71265 | 36955 ft | 499 kts | 27° |
| 2026-05-06 07:03 | -0.48497 | -30.68080 | 36958 ft | 499 kts | 27° |
| 2026-05-06 07:04 | -0.42322 | -30.64886 | 36951 ft | 499 kts | 27° |
| 2026-05-06 07:04 | -0.36194 | -30.61718 | 36961 ft | 500 kts | 27° |
| 2026-05-06 07:05 | -0.30023 | -30.58528 | 36959 ft | 500 kts | 27° |
| 2026-05-06 07:05 | -0.23850 | -30.55336 | 36959 ft | 500 kts | 27° |
| 2026-05-06 07:06 | -0.17676 | -30.52145 | 36960 ft | 500 kts | 27° |
| 2026-05-06 07:06 | -0.11535 | -30.48970 | 36958 ft | 500 kts | 27° |
| 2026-05-06 07:07 | -0.05364 | -30.45780 | 36956 ft | 500 kts | 27° |
| 2026-05-06 07:07 | 0.00809 | -30.42588 | 36962 ft | 500 kts | 27° |
| 2026-05-06 07:08 | 0.07007 | -30.39384 | 36962 ft | 501 kts | 27° |
| 2026-05-06 07:08 | 0.13154 | -30.36206 | 36959 ft | 501 kts | 27° |
| 2026-05-06 07:09 | 0.19338 | -30.33009 | 36962 ft | 500 kts | 27° |
| 2026-05-06 07:09 | 0.25506 | -30.29820 | 36945 ft | 499 kts | 27° |
| 2026-05-06 07:10 | 0.31663 | -30.26636 | 36947 ft | 499 kts | 27° |
| 2026-05-06 07:10 | 0.37795 | -30.23464 | 36946 ft | 500 kts | 27° |
| 2026-05-06 07:11 | 0.43987 | -30.20262 | 36962 ft | 501 kts | 27° |
| 2026-05-06 07:11 | 0.50186 | -30.17056 | 36959 ft | 502 kts | 27° |
| 2026-05-06 07:12 | 0.56392 | -30.13846 | 36963 ft | 502 kts | 27° |
| 2026-05-06 07:12 | 0.62555 | -30.10658 | 36950 ft | 503 kts | 27° |
| 2026-05-06 07:13 | 0.68761 | -30.07448 | 36947 ft | 502 kts | 27° |
| 2026-05-06 07:13 | 0.74962 | -30.04240 | 36948 ft | 502 kts | 27° |
| 2026-05-06 07:14 | 0.81135 | -30.01047 | 36952 ft | 503 kts | 27° |
| 2026-05-06 07:14 | 0.87361 | -29.97827 | 36965 ft | 504 kts | 27° |
| 2026-05-06 07:15 | 0.93581 | -29.94609 | 36963 ft | 503 kts | 27° |
| 2026-05-06 07:15 | 0.99793 | -29.91395 | 36949 ft | 503 kts | 27° |
| 2026-05-06 07:16 | 1.06019 | -29.88174 | 36950 ft | 504 kts | 27° |
| 2026-05-06 07:16 | 1.12207 | -29.84973 | 36950 ft | 505 kts | 27° |
| 2026-05-06 07:17 | 1.18442 | -29.81746 | 36952 ft | 505 kts | 27° |
| 2026-05-06 07:17 | 1.24686 | -29.78515 | 36960 ft | 506 kts | 27° |
| 2026-05-06 07:18 | 1.30897 | -29.75302 | 36951 ft | 506 kts | 27° |
| 2026-05-06 07:18 | 1.37146 | -29.72068 | 36955 ft | 506 kts | 27° |
| 2026-05-06 07:19 | 1.43390 | -29.68823 | 36953 ft | 506 kts | 27° |
| 2026-05-06 07:19 | 1.49635 | -29.65538 | 36951 ft | 508 kts | 27° |
| 2026-05-06 07:20 | 1.55898 | -29.62268 | 36951 ft | 508 kts | 27° |
| 2026-05-06 07:20 | 1.62114 | -29.59008 | 36952 ft | 508 kts | 27° |
| 2026-05-06 07:21 | 1.68382 | -29.55728 | 36965 ft | 509 kts | 27° |
| 2026-05-06 07:21 | 1.74650 | -29.52444 | 36966 ft | 509 kts | 27° |
| 2026-05-06 07:22 | 1.80917 | -29.49163 | 36949 ft | 508 kts | 27° |
| 2026-05-06 07:22 | 1.87135 | -29.45906 | 36948 ft | 508 kts | 27° |
| 2026-05-06 07:23 | 1.93398 | -29.42625 | 36950 ft | 508 kts | 27° |
| 2026-05-06 07:23 | 1.99667 | -29.39341 | 36949 ft | 509 kts | 27° |
| 2026-05-06 07:24 | 2.05944 | -29.36053 | 36949 ft | 509 kts | 27° |
| 2026-05-06 07:24 | 2.12183 | -29.32784 | 36949 ft | 510 kts | 27° |
| 2026-05-06 07:25 | 2.18474 | -29.29487 | 36956 ft | 511 kts | 27° |
| 2026-05-06 07:25 | 2.24776 | -29.26185 | 36957 ft | 512 kts | 27° |
| 2026-05-06 07:26 | 2.31088 | -29.22877 | 36960 ft | 512 kts | 27° |
| 2026-05-06 07:26 | 2.37347 | -29.19596 | 36967 ft | 512 kts | 27° |
| 2026-05-06 07:27 | 2.43659 | -29.16288 | 36953 ft | 512 kts | 27° |
| 2026-05-06 07:27 | 2.49966 | -29.12981 | 36951 ft | 511 kts | 27° |
| 2026-05-06 07:28 | 2.56224 | -29.09700 | 36950 ft | 511 kts | 27° |
| 2026-05-06 07:28 | 2.65673 | -29.04745 | 36947 ft | 511 kts | 27° |
| 2026-05-06 07:29 | 2.71976 | -29.01439 | 36946 ft | 511 kts | 27° |
| 2026-05-06 07:29 | 2.78232 | -28.98158 | 36947 ft | 511 kts | 27° |
| 2026-05-06 07:30 | 2.84521 | -28.94859 | 36951 ft | 510 kts | 27° |
| 2026-05-06 07:30 | 2.90794 | -28.91568 | 36953 ft | 509 kts | 27° |
| 2026-05-06 07:31 | 2.97075 | -28.88272 | 36955 ft | 510 kts | 27° |
| 2026-05-06 07:31 | 3.03310 | -28.85000 | 36961 ft | 509 kts | 27° |
| 2026-05-06 07:32 | 3.09580 | -28.81709 | 36960 ft | 509 kts | 27° |
| 2026-05-06 07:32 | 3.15853 | -28.78419 | 36963 ft | 509 kts | 27° |
| 2026-05-06 07:33 | 3.22141 | -28.75136 | 36959 ft | 509 kts | 27° |
| 2026-05-06 07:33 | 3.28418 | -28.71849 | 36962 ft | 509 kts | 28° |
| 2026-05-06 07:34 | 3.34654 | -28.68589 | 36962 ft | 508 kts | 28° |
| 2026-05-06 07:34 | 3.40914 | -28.65313 | 36960 ft | 507 kts | 28° |
| 2026-05-06 07:35 | 3.47173 | -28.62038 | 36958 ft | 507 kts | 28° |
| 2026-05-06 07:35 | 3.53385 | -28.58787 | 36957 ft | 507 kts | 28° |
| 2026-05-06 07:36 | 3.59635 | -28.55515 | 36955 ft | 507 kts | 28° |
| 2026-05-06 07:36 | 3.65875 | -28.52249 | 36951 ft | 506 kts | 28° |
| 2026-05-06 07:37 | 3.72118 | -28.48980 | 36957 ft | 506 kts | 28° |
| 2026-05-06 07:37 | 3.78346 | -28.45719 | 36957 ft | 504 kts | 28° |
| 2026-05-06 07:38 | 3.84512 | -28.42489 | 36956 ft | 503 kts | 28° |
| 2026-05-06 07:38 | 3.90714 | -28.39240 | 36952 ft | 503 kts | 28° |
| 2026-05-06 07:39 | 3.96913 | -28.35992 | 36954 ft | 503 kts | 28° |
| 2026-05-06 07:39 | 4.03110 | -28.32745 | 36949 ft | 502 kts | 28° |
| 2026-05-06 07:40 | 4.09263 | -28.29520 | 36955 ft | 503 kts | 27° |
| 2026-05-06 07:40 | 4.15461 | -28.26271 | 36954 ft | 503 kts | 27° |
| 2026-05-06 07:41 | 4.21665 | -28.23018 | 36957 ft | 503 kts | 27° |
| 2026-05-06 07:41 | 4.27829 | -28.19786 | 36958 ft | 503 kts | 27° |
| 2026-05-06 07:42 | 4.34028 | -28.16534 | 36958 ft | 503 kts | 27° |
| 2026-05-06 07:42 | 4.40232 | -28.13279 | 36955 ft | 503 kts | 27° |
| 2026-05-06 07:43 | 4.46431 | -28.10027 | 36957 ft | 503 kts | 27° |
| 2026-05-06 07:43 | 4.52594 | -28.06793 | 36954 ft | 503 kts | 27° |
| 2026-05-06 07:44 | 4.58798 | -28.03536 | 36953 ft | 503 kts | 27° |
| 2026-05-06 07:44 | 4.65007 | -28.00277 | 36959 ft | 503 kts | 27° |
| 2026-05-06 07:45 | 4.71207 | -27.97021 | 36956 ft | 503 kts | 27° |
| 2026-05-06 07:45 | 4.77368 | -27.93785 | 36961 ft | 503 kts | 27° |
| 2026-05-06 07:46 | 4.83571 | -27.90526 | 36959 ft | 503 kts | 27° |
| 2026-05-06 07:46 | 4.89774 | -27.87267 | 36951 ft | 503 kts | 27° |
| 2026-05-06 07:47 | 4.95974 | -27.84009 | 36952 ft | 503 kts | 27° |
| 2026-05-06 07:47 | 5.02132 | -27.80772 | 36958 ft | 503 kts | 27° |
| 2026-05-06 07:48 | 5.08328 | -27.77514 | 36952 ft | 503 kts | 27° |
| 2026-05-06 07:48 | 5.14518 | -27.74259 | 36949 ft | 502 kts | 27° |
| 2026-05-06 07:49 | 5.20665 | -27.71026 | 36947 ft | 502 kts | 27° |
| 2026-05-06 07:49 | 5.26857 | -27.67768 | 36954 ft | 503 kts | 27° |
| 2026-05-06 07:50 | 5.33049 | -27.64510 | 36954 ft | 502 kts | 27° |
| 2026-05-06 07:50 | 5.39239 | -27.61252 | 36953 ft | 502 kts | 27° |
| 2026-05-06 07:51 | 5.45434 | -27.57990 | 36955 ft | 502 kts | 27° |
| 2026-05-06 07:51 | 5.51578 | -27.54755 | 36954 ft | 502 kts | 27° |
| 2026-05-06 07:52 | 5.57762 | -27.51497 | 36953 ft | 502 kts | 26° |
| 2026-05-06 07:52 | 5.63947 | -27.48239 | 36954 ft | 502 kts | 26° |
| 2026-05-06 07:53 | 5.70139 | -27.44976 | 36958 ft | 502 kts | 26° |
| 2026-05-06 07:53 | 5.76281 | -27.41738 | 36959 ft | 502 kts | 26° |
| 2026-05-06 07:54 | 5.82465 | -27.38478 | 36955 ft | 502 kts | 26° |
| 2026-05-06 07:54 | 5.88661 | -27.35210 | 36958 ft | 503 kts | 26° |
| 2026-05-06 07:55 | 5.94805 | -27.31969 | 36961 ft | 502 kts | 26° |
| 2026-05-06 07:55 | 6.00993 | -27.28704 | 36955 ft | 502 kts | 26° |
| 2026-05-06 07:56 | 6.07184 | -27.25437 | 36958 ft | 503 kts | 26° |
| 2026-05-06 07:56 | 6.13387 | -27.22162 | 36964 ft | 504 kts | 26° |
| 2026-05-06 07:57 | 6.19560 | -27.18903 | 36967 ft | 505 kts | 26° |
| 2026-05-06 07:57 | 6.25771 | -27.15622 | 36968 ft | 504 kts | 26° |
| 2026-05-06 07:58 | 6.31974 | -27.12345 | 36964 ft | 503 kts | 26° |
| 2026-05-06 07:58 | 6.38161 | -27.09075 | 36961 ft | 503 kts | 26° |
| 2026-05-06 07:59 | 6.44323 | -27.05818 | 36962 ft | 504 kts | 26° |
| 2026-05-06 07:59 | 6.50534 | -27.02531 | 36966 ft | 505 kts | 26° |
| 2026-05-06 08:00 | 6.56766 | -26.99232 | 36970 ft | 506 kts | 26° |
| 2026-05-06 08:00 | 6.62989 | -26.95937 | 36963 ft | 506 kts | 26° |
| 2026-05-06 08:01 | 6.69173 | -26.92662 | 36964 ft | 506 kts | 26° |
| 2026-05-06 08:01 | 6.75409 | -26.89358 | 36972 ft | 506 kts | 26° |
| 2026-05-06 08:02 | 6.81639 | -26.86057 | 36971 ft | 506 kts | 26° |
| 2026-05-06 08:02 | 6.87858 | -26.82760 | 36969 ft | 505 kts | 26° |
| 2026-05-06 08:03 | 6.94032 | -26.79487 | 36968 ft | 505 kts | 26° |
| 2026-05-06 08:03 | 7.00246 | -26.76191 | 36966 ft | 505 kts | 26° |
| 2026-05-06 08:04 | 7.06470 | -26.72889 | 36970 ft | 507 kts | 26° |
| 2026-05-06 08:04 | 7.12669 | -26.69599 | 36973 ft | 507 kts | 26° |
| 2026-05-06 08:05 | 7.18904 | -26.66289 | 36974 ft | 507 kts | 25° |
| 2026-05-06 08:05 | 7.25141 | -26.62977 | 36971 ft | 506 kts | 25° |
| 2026-05-06 08:06 | 7.31374 | -26.59666 | 36972 ft | 506 kts | 25° |
| 2026-05-06 08:06 | 7.37610 | -26.56352 | 36971 ft | 507 kts | 25° |
| 2026-05-06 08:07 | 7.43816 | -26.53053 | 36969 ft | 508 kts | 25° |
| 2026-05-06 08:07 | 7.50079 | -26.49723 | 36976 ft | 509 kts | 25° |
| 2026-05-06 08:08 | 7.56349 | -26.46387 | 36977 ft | 509 kts | 25° |
| 2026-05-06 08:08 | 7.62606 | -26.43058 | 36978 ft | 508 kts | 25° |
| 2026-05-06 08:09 | 7.68810 | -26.39756 | 36975 ft | 507 kts | 25° |
| 2026-05-06 08:09 | 7.75046 | -26.36436 | 36976 ft | 507 kts | 25° |
| 2026-05-06 08:10 | 7.81295 | -26.33108 | 36980 ft | 508 kts | 25° |
| 2026-05-06 08:10 | 7.87511 | -26.29796 | 36985 ft | 509 kts | 25° |
| 2026-05-06 08:11 | 7.93765 | -26.26463 | 36984 ft | 508 kts | 25° |
| 2026-05-06 08:11 | 8.00017 | -26.23129 | 36981 ft | 508 kts | 25° |
| 2026-05-06 08:12 | 8.06265 | -26.19797 | 36977 ft | 508 kts | 25° |
| 2026-05-06 08:12 | 8.12475 | -26.16484 | 36984 ft | 509 kts | 25° |
| 2026-05-06 08:13 | 8.18732 | -26.13144 | 36984 ft | 508 kts | 25° |
| 2026-05-06 08:13 | 8.24976 | -26.09810 | 36984 ft | 507 kts | 25° |
| 2026-05-06 08:14 | 8.31220 | -26.06475 | 36987 ft | 508 kts | 25° |
| 2026-05-06 08:14 | 8.37484 | -26.03129 | 36985 ft | 510 kts | 25° |
| 2026-05-06 08:15 | 8.43719 | -25.99799 | 36986 ft | 511 kts | 25° |
| 2026-05-06 08:15 | 8.50003 | -25.96440 | 36985 ft | 511 kts | 25° |
| 2026-05-06 08:16 | 8.56279 | -25.93086 | 36990 ft | 510 kts | 25° |
| 2026-05-06 08:16 | 8.62508 | -25.89755 | 36991 ft | 510 kts | 25° |
| 2026-05-06 08:17 | 8.68786 | -25.86396 | 36993 ft | 511 kts | 24° |
| 2026-05-06 08:17 | 8.75076 | -25.83030 | 36989 ft | 512 kts | 24° |
| 2026-05-06 08:18 | 8.81369 | -25.79660 | 36989 ft | 512 kts | 24° |
| 2026-05-06 08:18 | 8.87669 | -25.76286 | 36990 ft | 512 kts | 24° |
| 2026-05-06 08:19 | 8.93921 | -25.72936 | 36993 ft | 512 kts | 24° |
| 2026-05-06 08:19 | 9.00205 | -25.69567 | 36988 ft | 511 kts | 24° |
| 2026-05-06 08:20 | 9.06493 | -25.66196 | 36988 ft | 512 kts | 24° |
| 2026-05-06 08:20 | 9.12747 | -25.62841 | 36993 ft | 513 kts | 24° |
| 2026-05-06 08:21 | 9.19061 | -25.59452 | 36995 ft | 514 kts | 24° |
| 2026-05-06 08:21 | 9.25380 | -25.56059 | 36992 ft | 514 kts | 24° |
| 2026-05-06 08:22 | 9.31694 | -25.52668 | 36988 ft | 514 kts | 24° |
| 2026-05-06 08:22 | 9.37960 | -25.49302 | 36996 ft | 513 kts | 24° |
| 2026-05-06 08:23 | 9.44264 | -25.45913 | 36990 ft | 513 kts | 24° |
| 2026-05-06 08:23 | 9.50561 | -25.42526 | 36994 ft | 513 kts | 24° |
| 2026-05-06 08:24 | 9.56837 | -25.39150 | 36993 ft | 515 kts | 24° |
| 2026-05-06 08:24 | 9.63166 | -25.35743 | 37001 ft | 515 kts | 24° |
| 2026-05-06 08:25 | 9.69491 | -25.32338 | 36999 ft | 515 kts | 24° |
| 2026-05-06 08:25 | 9.75813 | -25.28932 | 36997 ft | 515 kts | 24° |
| 2026-05-06 08:26 | 9.82142 | -25.25521 | 37000 ft | 515 kts | 24° |
| 2026-05-06 08:26 | 9.88433 | -25.22130 | 36999 ft | 516 kts | 24° |
| 2026-05-06 08:27 | 9.94783 | -25.18703 | 37001 ft | 517 kts | 24° |
| 2026-05-06 08:27 | 10.01130 | -25.15273 | 36998 ft | 516 kts | 24° |
| 2026-05-06 08:28 | 10.07468 | -25.11849 | 36997 ft | 516 kts | 24° |
| 2026-05-06 08:28 | 10.13758 | -25.08448 | 36984 ft | 516 kts | 24° |
| 2026-05-06 08:29 | 10.20094 | -25.05021 | 36986 ft | 517 kts | 24° |
| 2026-05-06 08:29 | 10.26450 | -25.01581 | 37001 ft | 518 kts | 24° |
| 2026-05-06 08:30 | 10.32819 | -24.98133 | 37002 ft | 519 kts | 24° |
| 2026-05-06 08:30 | 10.39148 | -24.94705 | 36987 ft | 518 kts | 24° |
| 2026-05-06 08:31 | 10.45505 | -24.91261 | 36988 ft | 517 kts | 24° |
| 2026-05-06 08:31 | 10.51861 | -24.87815 | 36986 ft | 518 kts | 24° |
| 2026-05-06 08:32 | 10.58176 | -24.84390 | 36987 ft | 518 kts | 24° |
| 2026-05-06 08:32 | 10.64544 | -24.80934 | 36987 ft | 519 kts | 24° |
| 2026-05-06 08:33 | 10.70923 | -24.77471 | 36990 ft | 520 kts | 24° |
| 2026-05-06 08:33 | 10.77306 | -24.74003 | 36995 ft | 520 kts | 24° |
| 2026-05-06 08:34 | 10.86838 | -24.68823 | 36999 ft | 520 kts | 24° |
| 2026-05-06 08:35 | 10.93218 | -24.65353 | 37000 ft | 520 kts | 24° |
| 2026-05-06 08:35 | 10.99596 | -24.61883 | 37002 ft | 519 kts | 24° |
| 2026-05-06 08:36 | 11.05977 | -24.58410 | 37002 ft | 521 kts | 24° |
| 2026-05-06 08:36 | 11.12324 | -24.54952 | 37009 ft | 521 kts | 24° |
| 2026-05-06 08:37 | 11.18723 | -24.51466 | 37009 ft | 521 kts | 24° |
| 2026-05-06 08:37 | 11.25118 | -24.47980 | 37008 ft | 522 kts | 24° |
| 2026-05-06 08:38 | 11.31517 | -24.44489 | 37011 ft | 522 kts | 24° |
| 2026-05-06 08:38 | 11.37877 | -24.41018 | 37010 ft | 522 kts | 24° |
| 2026-05-06 08:39 | 11.44287 | -24.37518 | 37006 ft | 522 kts | 24° |
| 2026-05-06 08:39 | 11.50686 | -24.34022 | 37007 ft | 522 kts | 24° |
| 2026-05-06 08:40 | 11.57037 | -24.30551 | 37007 ft | 522 kts | 24° |
| 2026-05-06 08:40 | 11.63444 | -24.27048 | 37013 ft | 523 kts | 24° |
| 2026-05-06 08:41 | 11.69856 | -24.23539 | 37011 ft | 523 kts | 24° |
| 2026-05-06 08:41 | 11.76278 | -24.20023 | 37012 ft | 524 kts | 24° |
| 2026-05-06 08:42 | 11.82708 | -24.16501 | 37013 ft | 525 kts | 24° |
| 2026-05-06 08:42 | 11.89105 | -24.12995 | 37012 ft | 525 kts | 24° |
| 2026-05-06 08:43 | 11.95533 | -24.09471 | 37014 ft | 524 kts | 24° |
| 2026-05-06 08:43 | 12.01960 | -24.05945 | 37016 ft | 524 kts | 24° |
| 2026-05-06 08:44 | 12.08334 | -24.02446 | 37012 ft | 524 kts | 24° |
| 2026-05-06 08:44 | 12.14753 | -23.98921 | 37019 ft | 525 kts | 24° |
| 2026-05-06 08:45 | 12.21187 | -23.95384 | 37016 ft | 525 kts | 24° |
| 2026-05-06 08:45 | 12.27628 | -23.91843 | 37018 ft | 526 kts | 24° |
| 2026-05-06 08:46 | 12.34022 | -23.88325 | 37018 ft | 526 kts | 24° |
| 2026-05-06 08:46 | 12.40471 | -23.84776 | 37015 ft | 527 kts | 24° |
| 2026-05-06 08:47 | 12.46930 | -23.81219 | 37012 ft | 528 kts | 24° |
| 2026-05-06 08:47 | 12.53391 | -23.77658 | 37016 ft | 527 kts | 23° |
| 2026-05-06 08:48 | 12.59800 | -23.74124 | 37016 ft | 526 kts | 23° |
| 2026-05-06 08:48 | 12.66247 | -23.70567 | 37018 ft | 526 kts | 23° |
| 2026-05-06 08:49 | 12.72701 | -23.67005 | 37013 ft | 527 kts | 23° |
| 2026-05-06 08:49 | 12.79168 | -23.63432 | 37015 ft | 529 kts | 23° |
| 2026-05-06 08:50 | 12.85602 | -23.59876 | 37016 ft | 529 kts | 23° |
| 2026-05-06 08:50 | 12.92086 | -23.56290 | 37020 ft | 529 kts | 23° |
| 2026-05-06 08:51 | 12.98560 | -23.52708 | 37020 ft | 529 kts | 23° |
| 2026-05-06 08:51 | 13.05045 | -23.49117 | 37016 ft | 529 kts | 23° |
| 2026-05-06 08:52 | 13.11480 | -23.45553 | 37017 ft | 529 kts | 23° |
| 2026-05-06 08:52 | 13.17961 | -23.41960 | 37024 ft | 530 kts | 23° |
| 2026-05-06 08:53 | 13.24453 | -23.38360 | 37022 ft | 530 kts | 23° |
| 2026-05-06 08:53 | 13.30949 | -23.34755 | 37031 ft | 531 kts | 23° |
| 2026-05-06 08:54 | 13.37406 | -23.31168 | 37028 ft | 531 kts | 23° |
| 2026-05-06 08:54 | 13.43913 | -23.27553 | 37027 ft | 532 kts | 23° |
| 2026-05-06 08:55 | 13.50428 | -23.23930 | 37029 ft | 533 kts | 23° |
| 2026-05-06 08:55 | 13.56908 | -23.20329 | 37026 ft | 533 kts | 23° |
| 2026-05-06 08:56 | 13.63421 | -23.16707 | 37024 ft | 533 kts | 23° |
| 2026-05-06 08:56 | 13.69945 | -23.13076 | 37017 ft | 533 kts | 23° |
| 2026-05-06 08:57 | 13.76479 | -23.09439 | 37021 ft | 534 kts | 23° |
| 2026-05-06 08:57 | 13.82975 | -23.05819 | 37024 ft | 535 kts | 23° |
| 2026-05-06 08:58 | 13.89525 | -23.02167 | 37023 ft | 535 kts | 23° |
| 2026-05-06 08:58 | 13.96077 | -22.98512 | 37029 ft | 536 kts | 23° |
| 2026-05-06 08:59 | 14.02634 | -22.94852 | 37031 ft | 537 kts | 23° |
| 2026-05-06 08:59 | 14.09161 | -22.91205 | 37034 ft | 538 kts | 23° |
| 2026-05-06 09:00 | 14.15744 | -22.87526 | 37033 ft | 539 kts | 23° |
| 2026-05-06 09:00 | 14.22328 | -22.83843 | 37026 ft | 539 kts | 23° |
| 2026-05-06 09:01 | 14.28920 | -22.80154 | 37034 ft | 539 kts | 23° |
| 2026-05-06 09:01 | 14.35513 | -22.76461 | 37034 ft | 539 kts | 23° |
| 2026-05-06 09:02 | 14.42060 | -22.72790 | 37038 ft | 538 kts | 23° |
| 2026-05-06 09:02 | 14.48635 | -22.69103 | 37037 ft | 538 kts | 23° |
| 2026-05-06 09:03 | 14.55223 | -22.65405 | 37038 ft | 539 kts | 23° |
| 2026-05-06 09:03 | 14.61820 | -22.61701 | 37034 ft | 540 kts | 23° |
| 2026-05-06 09:04 | 14.68374 | -22.58017 | 37041 ft | 539 kts | 23° |
| 2026-05-06 09:04 | 14.74961 | -22.54312 | 37042 ft | 539 kts | 23° |
| 2026-05-06 09:05 | 14.81545 | -22.50607 | 37044 ft | 539 kts | 23° |
| 2026-05-06 09:05 | 14.88073 | -22.46930 | 37040 ft | 538 kts | 23° |
| 2026-05-06 09:06 | 14.94660 | -22.43219 | 37036 ft | 539 kts | 23° |
| 2026-05-06 09:06 | 15.01246 | -22.39503 | 37040 ft | 539 kts | 23° |
| 2026-05-06 09:07 | 15.07841 | -22.35782 | 37044 ft | 540 kts | 23° |
| 2026-05-06 09:07 | 15.14386 | -22.32085 | 37046 ft | 540 kts | 23° |
| 2026-05-06 09:08 | 15.20985 | -22.28356 | 37050 ft | 540 kts | 23° |
| 2026-05-06 09:08 | 15.27582 | -22.24625 | 37050 ft | 541 kts | 23° |
| 2026-05-06 09:09 | 15.34190 | -22.20885 | 37045 ft | 542 kts | 23° |
| 2026-05-06 09:09 | 15.40760 | -22.17163 | 37046 ft | 542 kts | 23° |
| 2026-05-06 09:10 | 15.47373 | -22.13415 | 37049 ft | 542 kts | 23° |
| 2026-05-06 09:10 | 15.53988 | -22.09662 | 37046 ft | 542 kts | 23° |
| 2026-05-06 09:11 | 15.60607 | -22.05905 | 37049 ft | 542 kts | 22° |
| 2026-05-06 09:11 | 15.67184 | -22.02169 | 37043 ft | 543 kts | 22° |
| 2026-05-06 09:12 | 15.73816 | -21.98398 | 37043 ft | 544 kts | 23° |
| 2026-05-06 09:12 | 15.80451 | -21.94624 | 37048 ft | 543 kts | 22° |
| 2026-05-06 09:13 | 15.87090 | -21.90844 | 37047 ft | 544 kts | 22° |
| 2026-05-06 09:13 | 15.93679 | -21.87089 | 37045 ft | 544 kts | 22° |
| 2026-05-06 09:14 | 16.00327 | -21.83295 | 37044 ft | 546 kts | 23° |
| 2026-05-06 09:14 | 16.06980 | -21.79492 | 37048 ft | 546 kts | 23° |
| 2026-05-06 09:15 | 16.13635 | -21.75688 | 37044 ft | 546 kts | 23° |
| 2026-05-06 09:15 | 16.20250 | -21.71902 | 37042 ft | 546 kts | 22° |
| 2026-05-06 09:16 | 16.26917 | -21.68086 | 37047 ft | 547 kts | 22° |
| 2026-05-06 09:16 | 16.33588 | -21.64262 | 37049 ft | 549 kts | 22° |
| 2026-05-06 09:17 | 16.40279 | -21.60424 | 37045 ft | 549 kts | 22° |
| 2026-05-06 09:17 | 16.46932 | -21.56605 | 37049 ft | 550 kts | 22° |
| 2026-05-06 09:18 | 16.53623 | -21.52761 | 37054 ft | 549 kts | 22° |
| 2026-05-06 09:18 | 16.60326 | -21.48908 | 37049 ft | 551 kts | 22° |
| 2026-05-06 09:19 | 16.67044 | -21.45042 | 37048 ft | 552 kts | 22° |
| 2026-05-06 09:19 | 16.73717 | -21.41199 | 37046 ft | 551 kts | 22° |
| 2026-05-06 09:20 | 16.80436 | -21.37327 | 37046 ft | 552 kts | 22° |
| 2026-05-06 09:20 | 16.87169 | -21.33444 | 37049 ft | 553 kts | 22° |
| 2026-05-06 09:21 | 16.92765 | -21.30213 | 37031 ft | 554 kts | 22° |
| 2026-05-06 09:21 | 17.00603 | -21.25685 | 37043 ft | 554 kts | 22° |
| 2026-05-06 09:22 | 17.07359 | -21.21779 | 37044 ft | 555 kts | 22° |
| 2026-05-06 09:22 | 17.12975 | -21.18529 | 37051 ft | 556 kts | 22° |
| 2026-05-06 09:23 | 17.19740 | -21.14611 | 37049 ft | 556 kts | 22° |
| 2026-05-06 09:23 | 17.27603 | -21.10053 | 37050 ft | 556 kts | 22° |
| 2026-05-06 09:24 | 17.34369 | -21.06128 | 37050 ft | 556 kts | 22° |
| 2026-05-06 09:24 | 17.39993 | -21.02863 | 37048 ft | 556 kts | 22° |
| 2026-05-06 09:25 | 17.46763 | -20.98929 | 37048 ft | 557 kts | 22° |
| 2026-05-06 09:25 | 17.54645 | -20.94345 | 37043 ft | 557 kts | 22° |
| 2026-05-06 09:26 | 17.60323 | -20.91039 | 37043 ft | 558 kts | 22° |
| 2026-05-06 09:26 | 17.67073 | -20.87107 | 37046 ft | 558 kts | 22° |
| 2026-05-06 09:27 | 17.73866 | -20.83146 | 37044 ft | 559 kts | 22° |
| 2026-05-06 09:27 | 17.80670 | -20.79176 | 37046 ft | 560 kts | 22° |
| 2026-05-06 09:28 | 17.87482 | -20.75196 | 37046 ft | 560 kts | 22° |
| 2026-05-06 09:28 | 17.94300 | -20.71211 | 37046 ft | 561 kts | 22° |
| 2026-05-06 09:29 | 18.01064 | -20.67252 | 37051 ft | 561 kts | 22° |
| 2026-05-06 09:29 | 18.07888 | -20.63256 | 37049 ft | 561 kts | 22° |
| 2026-05-06 09:30 | 18.14710 | -20.59257 | 37048 ft | 562 kts | 21° |
| 2026-05-06 09:30 | 18.21535 | -20.55252 | 37036 ft | 562 kts | 21° |
| 2026-05-06 09:31 | 18.28320 | -20.51269 | 37044 ft | 563 kts | 21° |
| 2026-05-06 09:31 | 18.35161 | -20.47247 | 37046 ft | 563 kts | 21° |
| 2026-05-06 09:32 | 18.42002 | -20.43222 | 37047 ft | 563 kts | 21° |
| 2026-05-06 09:32 | 18.48845 | -20.39193 | 37046 ft | 564 kts | 21° |
| 2026-05-06 09:33 | 18.55646 | -20.35183 | 37047 ft | 564 kts | 21° |
| 2026-05-06 09:33 | 18.62492 | -20.31146 | 37043 ft | 564 kts | 21° |
| 2026-05-06 09:34 | 18.69332 | -20.27106 | 37045 ft | 564 kts | 21° |
| 2026-05-06 09:34 | 18.76183 | -20.23057 | 37044 ft | 564 kts | 21° |
| 2026-05-06 09:35 | 18.83026 | -20.19008 | 37047 ft | 564 kts | 21° |
| 2026-05-06 09:35 | 18.89815 | -20.14988 | 37039 ft | 563 kts | 21° |
| 2026-05-06 09:36 | 18.96648 | -20.10938 | 37042 ft | 563 kts | 21° |
| 2026-05-06 09:36 | 19.03476 | -20.06887 | 37043 ft | 562 kts | 21° |
| 2026-05-06 09:37 | 19.10295 | -20.02838 | 37039 ft | 562 kts | 21° |
| 2026-05-06 09:37 | 19.17069 | -19.98811 | 37040 ft | 562 kts | 21° |
| 2026-05-06 09:38 | 19.23884 | -19.94756 | 37038 ft | 562 kts | 21° |
| 2026-05-06 09:38 | 19.30684 | -19.90707 | 37038 ft | 561 kts | 21° |
| 2026-05-06 09:39 | 19.37440 | -19.86679 | 37038 ft | 560 kts | 21° |
| 2026-05-06 09:39 | 19.44226 | -19.82630 | 37037 ft | 559 kts | 22° |
| 2026-05-06 09:40 | 19.50994 | -19.78587 | 37037 ft | 558 kts | 22° |
| 2026-05-06 09:40 | 19.61131 | -19.72526 | 37039 ft | 556 kts | 22° |
| 2026-05-06 09:41 | 19.67822 | -19.68522 | 37030 ft | 556 kts | 22° |
| 2026-05-06 09:41 | 19.74554 | -19.64488 | 37032 ft | 555 kts | 22° |
| 2026-05-06 09:42 | 19.81284 | -19.60453 | 37034 ft | 555 kts | 22° |
| 2026-05-06 09:42 | 19.88001 | -19.56422 | 37033 ft | 555 kts | 22° |
| 2026-05-06 09:43 | 19.94667 | -19.52416 | 37033 ft | 554 kts | 22° |
| 2026-05-06 09:43 | 20.01366 | -19.48387 | 37039 ft | 553 kts | 22° |
| 2026-05-06 09:44 | 20.08012 | -19.44386 | 37032 ft | 552 kts | 22° |
| 2026-05-06 09:44 | 20.14746 | -19.40328 | 37271 ft | 552 kts | 22° |
| 2026-05-06 09:45 | 20.18094 | -19.38309 | 37477 ft | 553 kts | 22° |
| 2026-05-06 09:45 | 20.21439 | -19.36292 | 37677 ft | 553 kts | 22° |
| 2026-05-06 09:45 | 20.24786 | -19.34271 | 37877 ft | 554 kts | 22° |
| 2026-05-06 09:45 | 20.28094 | -19.32273 | 38072 ft | 554 kts | 22° |
| 2026-05-06 09:46 | 20.31452 | -19.30244 | 38260 ft | 555 kts | 22° |
| 2026-05-06 09:46 | 20.34808 | -19.28215 | 38455 ft | 555 kts | 23° |
| 2026-05-06 09:46 | 20.38172 | -19.26180 | 38632 ft | 556 kts | 22° |
| 2026-05-06 09:46 | 20.41539 | -19.24142 | 38807 ft | 556 kts | 23° |
| 2026-05-06 09:47 | 20.44902 | -19.22106 | 38988 ft | 556 kts | 23° |
| 2026-05-06 09:47 | 20.48274 | -19.20064 | 39025 ft | 559 kts | 23° |
| 2026-05-06 09:47 | 20.54983 | -19.15995 | 39020 ft | 557 kts | 23° |
| 2026-05-06 09:48 | 20.61699 | -19.11920 | 39019 ft | 554 kts | 23° |
| 2026-05-06 09:48 | 20.68400 | -19.07850 | 39015 ft | 554 kts | 23° |
| 2026-05-06 09:49 | 20.75047 | -19.03807 | 39022 ft | 553 kts | 23° |
| 2026-05-06 09:49 | 20.81736 | -18.99735 | 39024 ft | 553 kts | 23° |
| 2026-05-06 09:50 | 20.88416 | -18.95665 | 39027 ft | 554 kts | 23° |
| 2026-05-06 09:50 | 20.95120 | -18.91576 | 39033 ft | 554 kts | 24° |
| 2026-05-06 09:51 | 21.01817 | -18.87486 | 39036 ft | 554 kts | 24° |
| 2026-05-06 09:51 | 21.08473 | -18.83417 | 39032 ft | 555 kts | 24° |
| 2026-05-06 09:52 | 21.15179 | -18.79314 | 39035 ft | 555 kts | 24° |
| 2026-05-06 09:52 | 21.21887 | -18.75205 | 39036 ft | 555 kts | 24° |
| 2026-05-06 09:53 | 21.28585 | -18.71097 | 39032 ft | 555 kts | 24° |
| 2026-05-06 09:53 | 21.35248 | -18.67008 | 39025 ft | 555 kts | 24° |
| 2026-05-06 09:54 | 21.41951 | -18.62888 | 39028 ft | 556 kts | 24° |
| 2026-05-06 09:54 | 21.48668 | -18.58755 | 39030 ft | 557 kts | 24° |
| 2026-05-06 09:55 | 21.55383 | -18.54620 | 39029 ft | 557 kts | 24° |
| 2026-05-06 09:55 | 21.62056 | -18.50506 | 39034 ft | 557 kts | 24° |
| 2026-05-06 09:56 | 21.68775 | -18.46358 | 39032 ft | 557 kts | 24° |
| 2026-05-06 09:56 | 21.75497 | -18.42204 | 39030 ft | 557 kts | 24° |
| 2026-05-06 09:57 | 21.82170 | -18.38076 | 39026 ft | 557 kts | 24° |
| 2026-05-06 09:57 | 21.88888 | -18.33917 | 39025 ft | 557 kts | 24° |
| 2026-05-06 09:58 | 21.95603 | -18.29754 | 39028 ft | 557 kts | 24° |
| 2026-05-06 09:58 | 22.02317 | -18.25587 | 39029 ft | 557 kts | 24° |
| 2026-05-06 09:59 | 22.09037 | -18.21411 | 39029 ft | 557 kts | 25° |
| 2026-05-06 09:59 | 22.15704 | -18.17265 | 39025 ft | 557 kts | 25° |
| 2026-05-06 10:00 | 22.22420 | -18.13083 | 39027 ft | 557 kts | 25° |
| 2026-05-06 10:00 | 22.29134 | -18.08898 | 39029 ft | 557 kts | 24° |
| 2026-05-06 10:01 | 22.35851 | -18.04706 | 39031 ft | 558 kts | 25° |
| 2026-05-06 10:01 | 22.42520 | -18.00538 | 39030 ft | 557 kts | 25° |
| 2026-05-06 10:02 | 22.49218 | -17.96349 | 39030 ft | 556 kts | 24° |
| 2026-05-06 10:02 | 22.55917 | -17.92154 | 39026 ft | 556 kts | 24° |
| 2026-05-06 10:03 | 22.62612 | -17.87957 | 39027 ft | 556 kts | 24° |
| 2026-05-06 10:03 | 22.69264 | -17.83782 | 39023 ft | 556 kts | 24° |
| 2026-05-06 10:04 | 22.75964 | -17.79573 | 39028 ft | 557 kts | 24° |
| 2026-05-06 10:04 | 22.82670 | -17.75354 | 39027 ft | 557 kts | 24° |
| 2026-05-06 10:05 | 22.89333 | -17.71158 | 39023 ft | 557 kts | 24° |
| 2026-05-06 10:05 | 22.96034 | -17.66933 | 39025 ft | 557 kts | 24° |
| 2026-05-06 10:06 | 23.02745 | -17.62698 | 39018 ft | 558 kts | 25° |
| 2026-05-06 10:06 | 23.09452 | -17.58459 | 39023 ft | 558 kts | 25° |
| 2026-05-06 10:07 | 23.16125 | -17.54237 | 39024 ft | 559 kts | 25° |
| 2026-05-06 10:07 | 23.22846 | -17.49979 | 39027 ft | 559 kts | 25° |
| 2026-05-06 10:08 | 23.29577 | -17.45711 | 39023 ft | 561 kts | 25° |
| 2026-05-06 10:08 | 23.36315 | -17.41432 | 39028 ft | 561 kts | 25° |
| 2026-05-06 10:09 | 23.43013 | -17.37175 | 39028 ft | 561 kts | 25° |
| 2026-05-06 10:09 | 23.49755 | -17.32883 | 39023 ft | 561 kts | 25° |
| 2026-05-06 10:10 | 23.56497 | -17.28588 | 39024 ft | 561 kts | 25° |
| 2026-05-06 10:10 | 23.63232 | -17.24291 | 39025 ft | 561 kts | 25° |
| 2026-05-06 10:11 | 23.69923 | -17.20017 | 39025 ft | 561 kts | 25° |
| 2026-05-06 10:11 | 23.76652 | -17.15714 | 39025 ft | 561 kts | 25° |
| 2026-05-06 10:12 | 23.83381 | -17.11406 | 39030 ft | 561 kts | 25° |
| 2026-05-06 10:12 | 23.90112 | -17.07090 | 39027 ft | 561 kts | 25° |
| 2026-05-06 10:13 | 23.96787 | -17.02806 | 39033 ft | 560 kts | 25° |
| 2026-05-06 10:13 | 24.03505 | -16.98489 | 39031 ft | 560 kts | 25° |
| 2026-05-06 10:14 | 24.10225 | -16.94166 | 39030 ft | 560 kts | 25° |
| 2026-05-06 10:14 | 24.16896 | -16.89867 | 39025 ft | 560 kts | 25° |
| 2026-05-06 10:15 | 24.23609 | -16.85538 | 39028 ft | 560 kts | 25° |
| 2026-05-06 10:15 | 24.30320 | -16.81204 | 39025 ft | 560 kts | 25° |
| 2026-05-06 10:16 | 24.37030 | -16.76866 | 39019 ft | 560 kts | 25° |
| 2026-05-06 10:16 | 24.43735 | -16.72524 | 39017 ft | 559 kts | 25° |
| 2026-05-06 10:17 | 24.50392 | -16.68210 | 39022 ft | 559 kts | 25° |
| 2026-05-06 10:17 | 24.57097 | -16.63858 | 39021 ft | 560 kts | 25° |
| 2026-05-06 10:18 | 24.63800 | -16.59502 | 39027 ft | 560 kts | 25° |
| 2026-05-06 10:18 | 24.70504 | -16.55140 | 39032 ft | 560 kts | 25° |
| 2026-05-06 10:19 | 24.77160 | -16.50804 | 39032 ft | 560 kts | 25° |
| 2026-05-06 10:19 | 24.83870 | -16.46427 | 39031 ft | 560 kts | 25° |
| 2026-05-06 10:20 | 24.90579 | -16.42045 | 39031 ft | 561 kts | 25° |
| 2026-05-06 10:20 | 24.97238 | -16.37690 | 39030 ft | 561 kts | 25° |
| 2026-05-06 10:21 | 25.03952 | -16.33294 | 39030 ft | 561 kts | 25° |
| 2026-05-06 10:21 | 25.10655 | -16.28898 | 39030 ft | 561 kts | 25° |
| 2026-05-06 10:22 | 25.17363 | -16.24494 | 39034 ft | 561 kts | 25° |
| 2026-05-06 10:22 | 25.24026 | -16.20112 | 39030 ft | 561 kts | 25° |
| 2026-05-06 10:23 | 25.30729 | -16.15701 | 39031 ft | 561 kts | 25° |
| 2026-05-06 10:23 | 25.37426 | -16.11286 | 39033 ft | 560 kts | 25° |
| 2026-05-06 10:24 | 25.44122 | -16.06867 | 39032 ft | 560 kts | 25° |
| 2026-05-06 10:24 | 25.50774 | -16.02470 | 39038 ft | 560 kts | 25° |
| 2026-05-06 10:25 | 25.57462 | -15.98045 | 39042 ft | 561 kts | 25° |
| 2026-05-06 10:25 | 25.64160 | -15.93606 | 39042 ft | 561 kts | 25° |
| 2026-05-06 10:26 | 25.70847 | -15.89170 | 39039 ft | 560 kts | 25° |
| 2026-05-06 10:26 | 25.77485 | -15.84760 | 39037 ft | 560 kts | 25° |
| 2026-05-06 10:27 | 25.84160 | -15.80319 | 39040 ft | 560 kts | 25° |
| 2026-05-06 10:27 | 25.90838 | -15.75870 | 39038 ft | 559 kts | 25° |
| 2026-05-06 10:28 | 25.97505 | -15.71424 | 39039 ft | 559 kts | 25° |
| 2026-05-06 10:28 | 26.04116 | -15.67008 | 39040 ft | 558 kts | 25° |
| 2026-05-06 10:29 | 26.10770 | -15.62558 | 39047 ft | 558 kts | 25° |
| 2026-05-06 10:29 | 26.17421 | -15.58103 | 39044 ft | 558 kts | 25° |
| 2026-05-06 10:30 | 26.24069 | -15.53645 | 39042 ft | 557 kts | 25° |
| 2026-05-06 10:30 | 26.30660 | -15.49219 | 39045 ft | 557 kts | 25° |
| 2026-05-06 10:31 | 26.37297 | -15.44757 | 39047 ft | 557 kts | 25° |
| 2026-05-06 10:31 | 26.43936 | -15.40286 | 39048 ft | 557 kts | 25° |
| 2026-05-06 10:32 | 26.50567 | -15.35816 | 39045 ft | 557 kts | 25° |
| 2026-05-06 10:32 | 26.57203 | -15.31335 | 39046 ft | 557 kts | 25° |
| 2026-05-06 10:33 | 26.63786 | -15.26884 | 39048 ft | 557 kts | 25° |
| 2026-05-06 10:33 | 26.70419 | -15.22394 | 39051 ft | 557 kts | 25° |
| 2026-05-06 10:34 | 26.77046 | -15.17901 | 39046 ft | 557 kts | 25° |
| 2026-05-06 10:34 | 26.83627 | -15.13432 | 39052 ft | 557 kts | 25° |
| 2026-05-06 10:35 | 26.90251 | -15.08928 | 39052 ft | 557 kts | 25° |
| 2026-05-06 10:35 | 26.96879 | -15.04416 | 39049 ft | 558 kts | 25° |
| 2026-05-06 10:36 | 27.03509 | -14.99895 | 39040 ft | 558 kts | 25° |
| 2026-05-06 10:36 | 27.10137 | -14.95369 | 39047 ft | 557 kts | 25° |
| 2026-05-06 10:37 | 27.13440 | -14.93112 | 39179 ft | 557 kts | 25° |
| 2026-05-06 10:37 | 27.16721 | -14.90873 | 39083 ft | 561 kts | 27° |
| 2026-05-06 10:37 | 27.23378 | -14.86307 | 39043 ft | 559 kts | 27° |
| 2026-05-06 10:38 | 27.30021 | -14.81758 | 39050 ft | 558 kts | 27° |
| 2026-05-06 10:38 | 27.36650 | -14.77203 | 39051 ft | 558 kts | 27° |
| 2026-05-06 10:39 | 27.43229 | -14.72681 | 39055 ft | 558 kts | 27° |
| 2026-05-06 10:39 | 27.49849 | -14.68122 | 39052 ft | 557 kts | 27° |
| 2026-05-06 10:40 | 27.56459 | -14.63564 | 39055 ft | 557 kts | 27° |
| 2026-05-06 10:40 | 27.63074 | -14.58996 | 39051 ft | 557 kts | 27° |
| 2026-05-06 10:41 | 27.69631 | -14.54462 | 39053 ft | 557 kts | 27° |
| 2026-05-06 10:41 | 27.76239 | -14.49886 | 39051 ft | 557 kts | 27° |
| 2026-05-06 10:42 | 27.82834 | -14.45312 | 39049 ft | 556 kts | 27° |
| 2026-05-06 10:42 | 27.89382 | -14.40765 | 39058 ft | 556 kts | 27° |
| 2026-05-06 10:43 | 27.95976 | -14.36178 | 39054 ft | 556 kts | 27° |
| 2026-05-06 10:44 | 28.05853 | -14.29296 | 39049 ft | 555 kts | 27° |
| 2026-05-06 10:44 | 28.12385 | -14.24736 | 39055 ft | 555 kts | 27° |
| 2026-05-06 10:45 | 28.18951 | -14.20146 | 39053 ft | 555 kts | 27° |
| 2026-05-06 10:45 | 28.25522 | -14.15546 | 39050 ft | 554 kts | 27° |
| 2026-05-06 10:46 | 28.32079 | -14.10948 | 39057 ft | 555 kts | 27° |
| 2026-05-06 10:46 | 28.38607 | -14.06365 | 39057 ft | 555 kts | 27° |
| 2026-05-06 10:47 | 28.45171 | -14.01749 | 39058 ft | 554 kts | 27° |
| 2026-05-06 10:47 | 28.51729 | -13.97132 | 39054 ft | 554 kts | 27° |
| 2026-05-06 10:48 | 28.58277 | -13.92512 | 39053 ft | 554 kts | 27° |
| 2026-05-06 10:48 | 28.64782 | -13.87919 | 39062 ft | 554 kts | 27° |
| 2026-05-06 10:49 | 28.71325 | -13.83290 | 39062 ft | 554 kts | 27° |
| 2026-05-06 10:49 | 28.77869 | -13.78655 | 39060 ft | 553 kts | 27° |
| 2026-05-06 10:50 | 28.84405 | -13.74018 | 39058 ft | 553 kts | 27° |
| 2026-05-06 10:50 | 28.90895 | -13.69407 | 39055 ft | 553 kts | 27° |
| 2026-05-06 10:51 | 28.97427 | -13.64758 | 39059 ft | 553 kts | 27° |
| 2026-05-06 10:51 | 29.03957 | -13.60104 | 39057 ft | 553 kts | 28° |
| 2026-05-06 10:52 | 29.10483 | -13.55446 | 39060 ft | 553 kts | 28° |
| 2026-05-06 10:52 | 29.16656 | -13.50295 | 39075 ft | 558 kts | 45° |
| 2026-05-06 10:53 | 29.21416 | -13.43238 | 39067 ft | 561 kts | 54° |
| 2026-05-06 10:53 | 29.25875 | -13.35913 | 39064 ft | 561 kts | 54° |
| 2026-05-06 10:54 | 29.30349 | -13.28602 | 39063 ft | 561 kts | 54° |
| 2026-05-06 10:54 | 29.34785 | -13.21316 | 39059 ft | 561 kts | 54° |
| 2026-05-06 10:55 | 29.39253 | -13.13975 | 39058 ft | 561 kts | 54° |
| 2026-05-06 10:55 | 29.43717 | -13.06624 | 39058 ft | 562 kts | 54° |
| 2026-05-06 10:56 | 29.48179 | -12.99263 | 39060 ft | 562 kts | 54° |
| 2026-05-06 10:56 | 29.52607 | -12.91946 | 39052 ft | 562 kts | 54° |
| 2026-05-06 10:57 | 29.57062 | -12.84569 | 39057 ft | 562 kts | 54° |
| 2026-05-06 10:57 | 29.61513 | -12.77188 | 39056 ft | 562 kts | 54° |
| 2026-05-06 10:58 | 29.65931 | -12.69848 | 39054 ft | 562 kts | 54° |
| 2026-05-06 10:58 | 29.70375 | -12.62451 | 39053 ft | 563 kts | 54° |
| 2026-05-06 10:59 | 29.74822 | -12.55027 | 39055 ft | 564 kts | 55° |
| 2026-05-06 10:59 | 29.79221 | -12.47559 | 39052 ft | 564 kts | 55° |
| 2026-05-06 11:00 | 29.83609 | -12.40152 | 39042 ft | 563 kts | 55° |
| 2026-05-06 11:00 | 29.87998 | -12.32701 | 39032 ft | 562 kts | 55° |
| 2026-05-06 11:01 | 29.92396 | -12.25235 | 39038 ft | 563 kts | 55° |
| 2026-05-06 11:01 | 29.96787 | -12.17760 | 39052 ft | 563 kts | 55° |
| 2026-05-06 11:02 | 30.01179 | -12.10271 | 39043 ft | 563 kts | 55° |
| 2026-05-06 11:02 | 30.05568 | -12.02854 | 39050 ft | 564 kts | 55° |
| 2026-05-06 11:03 | 30.09993 | -11.95379 | 39047 ft | 564 kts | 55° |
| 2026-05-06 11:03 | 30.14411 | -11.87882 | 39040 ft | 565 kts | 55° |
| 2026-05-06 11:04 | 30.18807 | -11.80427 | 39041 ft | 565 kts | 55° |
| 2026-05-06 11:04 | 30.23218 | -11.72915 | 39037 ft | 565 kts | 55° |
| 2026-05-06 11:05 | 30.27637 | -11.65390 | 39037 ft | 565 kts | 55° |
| 2026-05-06 11:05 | 30.32048 | -11.57855 | 39034 ft | 566 kts | 55° |
| 2026-05-06 11:06 | 30.36424 | -11.50370 | 39033 ft | 566 kts | 55° |
| 2026-05-06 11:06 | 30.40836 | -11.42808 | 39032 ft | 566 kts | 55° |
| 2026-05-06 11:07 | 30.45242 | -11.35242 | 39027 ft | 567 kts | 55° |
| 2026-05-06 11:07 | 30.49657 | -11.27647 | 39021 ft | 568 kts | 55° |
| 2026-05-06 11:08 | 30.54035 | -11.20100 | 39019 ft | 567 kts | 55° |
| 2026-05-06 11:08 | 30.58425 | -11.12518 | 39017 ft | 567 kts | 55° |
| 2026-05-06 11:09 | 30.62821 | -11.04912 | 39016 ft | 567 kts | 55° |
| 2026-05-06 11:09 | 30.67209 | -10.97305 | 39015 ft | 567 kts | 55° |
| 2026-05-06 11:10 | 30.71567 | -10.89735 | 39013 ft | 567 kts | 55° |
| 2026-05-06 11:10 | 30.75944 | -10.82119 | 39013 ft | 567 kts | 55° |
| 2026-05-06 11:11 | 30.80322 | -10.74486 | 39010 ft | 567 kts | 55° |
| 2026-05-06 11:11 | 30.84697 | -10.66842 | 39006 ft | 567 kts | 55° |
| 2026-05-06 11:12 | 30.89029 | -10.59260 | 39010 ft | 567 kts | 55° |
| 2026-05-06 11:12 | 30.93395 | -10.51602 | 38997 ft | 567 kts | 55° |
| 2026-05-06 11:13 | 30.97752 | -10.43947 | 38999 ft | 567 kts | 55° |
| 2026-05-06 11:13 | 31.02107 | -10.36279 | 39003 ft | 567 kts | 55° |
| 2026-05-06 11:14 | 31.06428 | -10.28657 | 39000 ft | 568 kts | 56° |
| 2026-05-06 11:14 | 31.10780 | -10.20965 | 38997 ft | 568 kts | 56° |
| 2026-05-06 11:15 | 31.15124 | -10.13273 | 38992 ft | 568 kts | 56° |
| 2026-05-06 11:15 | 31.19461 | -10.05576 | 38995 ft | 568 kts | 56° |
| 2026-05-06 11:16 | 31.23774 | -9.97909 | 38998 ft | 567 kts | 56° |
| 2026-05-06 11:16 | 31.28100 | -9.90202 | 38991 ft | 567 kts | 56° |
| 2026-05-06 11:17 | 31.32420 | -9.82490 | 38993 ft | 567 kts | 56° |
| 2026-05-06 11:17 | 31.36740 | -9.74765 | 38995 ft | 568 kts | 56° |
| 2026-05-06 11:18 | 31.41551 | -9.67511 | 39022 ft | 562 kts | 38° |
| 2026-05-06 11:18 | 31.47561 | -9.61836 | 39015 ft | 559 kts | 34° |
| 2026-05-06 11:19 | 31.53676 | -9.56224 | 39001 ft | 558 kts | 34° |
| 2026-05-06 11:19 | 31.59762 | -9.50584 | 39005 ft | 557 kts | 34° |
| 2026-05-06 11:20 | 31.65849 | -9.44963 | 39006 ft | 556 kts | 34° |
| 2026-05-06 11:20 | 31.71869 | -9.39376 | 39005 ft | 555 kts | 34° |
| 2026-05-06 11:20 | 31.74895 | -9.36568 | 38713 ft | 552 kts | 34° |
| 2026-05-06 11:21 | 31.77915 | -9.33766 | 37931 ft | 554 kts | 34° |
| 2026-05-06 11:21 | 31.80935 | -9.30959 | 37256 ft | 553 kts | 34° |
| 2026-05-06 11:21 | 31.83942 | -9.28158 | 36596 ft | 551 kts | 34° |
| 2026-05-06 11:21 | 31.86946 | -9.25361 | 35944 ft | 551 kts | 34° |
| 2026-05-06 11:22 | 31.89946 | -9.22566 | 35296 ft | 550 kts | 34° |
| 2026-05-06 11:22 | 31.92902 | -9.19809 | 34652 ft | 549 kts | 34° |
| 2026-05-06 11:22 | 31.95897 | -9.17012 | 33997 ft | 549 kts | 34° |
| 2026-05-06 11:22 | 31.98885 | -9.14220 | 33311 ft | 547 kts | 34° |
| 2026-05-06 11:23 | 32.01852 | -9.11445 | 32663 ft | 543 kts | 35° |
| 2026-05-06 11:23 | 32.04796 | -9.08688 | 32034 ft | 538 kts | 35° |
| 2026-05-06 11:23 | 32.07715 | -9.05953 | 31416 ft | 534 kts | 35° |
| 2026-05-06 11:23 | 32.10609 | -9.03241 | 30779 ft | 529 kts | 35° |
| 2026-05-06 11:24 | 32.13472 | -9.00554 | 30169 ft | 523 kts | 35° |
| 2026-05-06 11:24 | 32.16269 | -8.97926 | 29515 ft | 517 kts | 35° |
| 2026-05-06 11:24 | 32.19062 | -8.95301 | 28930 ft | 510 kts | 35° |
| 2026-05-06 11:24 | 32.21811 | -8.92715 | 28340 ft | 502 kts | 35° |
| 2026-05-06 11:25 | 32.24428 | -8.90023 | 27789 ft | 497 kts | 45° |
| 2026-05-06 11:25 | 32.26578 | -8.86849 | 27226 ft | 492 kts | 53° |
| 2026-05-06 11:25 | 32.28546 | -8.83564 | 26652 ft | 486 kts | 53° |
| 2026-05-06 11:25 | 32.30476 | -8.80308 | 26103 ft | 481 kts | 53° |
| 2026-05-06 11:26 | 32.32380 | -8.77092 | 25561 ft | 475 kts | 53° |
| 2026-05-06 11:26 | 32.34246 | -8.73961 | 25037 ft | 469 kts | 53° |
| 2026-05-06 11:26 | 32.36115 | -8.70824 | 24508 ft | 464 kts | 53° |
| 2026-05-06 11:26 | 32.37958 | -8.67717 | 23992 ft | 459 kts | 53° |
| 2026-05-06 11:27 | 32.39780 | -8.64640 | 23459 ft | 454 kts | 53° |
| 2026-05-06 11:27 | 32.41578 | -8.61606 | 22927 ft | 447 kts | 53° |
| 2026-05-06 11:27 | 32.43352 | -8.58613 | 22418 ft | 440 kts | 53° |
| 2026-05-06 11:27 | 32.45095 | -8.55666 | 21938 ft | 433 kts | 53° |
| 2026-05-06 11:28 | 32.46810 | -8.52765 | 21462 ft | 427 kts | 53° |
| 2026-05-06 11:28 | 32.48477 | -8.49942 | 20992 ft | 421 kts | 53° |
| 2026-05-06 11:28 | 32.50140 | -8.47125 | 20540 ft | 415 kts | 53° |
| 2026-05-06 11:28 | 32.51782 | -8.44343 | 20083 ft | 409 kts | 53° |
| 2026-05-06 11:29 | 32.53401 | -8.41595 | 19626 ft | 404 kts | 53° |
| 2026-05-06 11:29 | 32.54997 | -8.38886 | 19195 ft | 398 kts | 53° |
| 2026-05-06 11:29 | 32.56574 | -8.36235 | 18551 ft | 387 kts | 51° |
| 2026-05-06 11:29 | 32.58184 | -8.33799 | 17921 ft | 363 kts | 49° |
| 2026-05-06 11:30 | 32.59708 | -8.31556 | 17502 ft | 336 kts | 50° |
| 2026-05-06 11:30 | 32.61079 | -8.29434 | 17137 ft | 313 kts | 51° |
| 2026-05-06 11:30 | 32.62377 | -8.27395 | 16822 ft | 319 kts | 51° |
| 2026-05-06 11:30 | 32.63727 | -8.25307 | 16499 ft | 317 kts | 50° |
| 2026-05-06 11:31 | 32.65066 | -8.23246 | 16155 ft | 314 kts | 50° |
| 2026-05-06 11:31 | 32.66386 | -8.21206 | 15807 ft | 310 kts | 50° |
| 2026-05-06 11:31 | 32.67687 | -8.19188 | 15471 ft | 307 kts | 50° |
| 2026-05-06 11:31 | 32.68988 | -8.17173 | 15151 ft | 307 kts | 50° |
| 2026-05-06 11:32 | 32.70285 | -8.15165 | 14801 ft | 305 kts | 50° |
| 2026-05-06 11:32 | 32.71569 | -8.13174 | 14466 ft | 302 kts | 50° |
| 2026-05-06 11:32 | 32.72820 | -8.11232 | 14151 ft | 299 kts | 50° |
| 2026-05-06 11:32 | 32.74075 | -8.09283 | 13811 ft | 295 kts | 50° |
| 2026-05-06 11:33 | 32.75322 | -8.07349 | 13473 ft | 295 kts | 50° |
| 2026-05-06 11:33 | 32.76565 | -8.05418 | 13145 ft | 294 kts | 51° |
| 2026-05-06 11:33 | 32.77804 | -8.03491 | 12818 ft | 292 kts | 51° |
| 2026-05-06 11:33 | 32.79025 | -8.01590 | 12505 ft | 287 kts | 51° |
| 2026-05-06 11:34 | 32.80234 | -7.99710 | 12188 ft | 287 kts | 51° |
| 2026-05-06 11:34 | 32.81446 | -7.97824 | 11876 ft | 287 kts | 51° |
| 2026-05-06 11:34 | 32.82630 | -7.95979 | 11558 ft | 282 kts | 51° |
| 2026-05-06 11:34 | 32.83809 | -7.94141 | 11250 ft | 279 kts | 51° |
| 2026-05-06 11:35 | 32.84987 | -7.92304 | 10940 ft | 280 kts | 51° |
| 2026-05-06 11:35 | 32.86161 | -7.90473 | 10633 ft | 278 kts | 52° |
| 2026-05-06 11:35 | 32.87318 | -7.88667 | 10455 ft | 270 kts | 52° |
| 2026-05-06 11:35 | 32.88460 | -7.86884 | 10340 ft | 273 kts | 52° |
| 2026-05-06 11:36 | 32.89615 | -7.85079 | 10099 ft | 272 kts | 52° |
| 2026-05-06 11:36 | 32.90754 | -7.83298 | 9739 ft | 271 kts | 52° |
| 2026-05-06 11:36 | 32.91878 | -7.81540 | 9354 ft | 270 kts | 52° |
| 2026-05-06 11:36 | 32.93012 | -7.79767 | 8973 ft | 269 kts | 52° |
| 2026-05-06 11:37 | 32.94143 | -7.77996 | 8565 ft | 268 kts | 52° |
| 2026-05-06 11:37 | 32.95268 | -7.76235 | 8194 ft | 267 kts | 52° |
| 2026-05-06 11:37 | 32.96387 | -7.74480 | 7829 ft | 265 kts | 52° |
| 2026-05-06 11:37 | 32.97498 | -7.72740 | 7465 ft | 263 kts | 52° |
| 2026-05-06 11:38 | 32.98598 | -7.71015 | 7093 ft | 261 kts | 52° |
| 2026-05-06 11:38 | 32.99677 | -7.69322 | 6733 ft | 260 kts | 52° |
| 2026-05-06 11:38 | 33.00767 | -7.67610 | 6374 ft | 258 kts | 52° |
| 2026-05-06 11:38 | 33.01849 | -7.65910 | 5981 ft | 257 kts | 52° |
| 2026-05-06 11:39 | 33.02927 | -7.64217 | 5610 ft | 255 kts | 52° |
| 2026-05-06 11:39 | 33.03997 | -7.62536 | 5241 ft | 254 kts | 52° |
| 2026-05-06 11:39 | 33.05059 | -7.60865 | 4883 ft | 252 kts | 52° |
| 2026-05-06 11:39 | 33.06112 | -7.59209 | 4515 ft | 249 kts | 52° |
| 2026-05-06 11:40 | 33.07153 | -7.57568 | 4138 ft | 247 kts | 52° |
| 2026-05-06 11:40 | 33.08174 | -7.55962 | 3769 ft | 245 kts | 51° |
| 2026-05-06 11:40 | 33.09199 | -7.54347 | 3404 ft | 244 kts | 52° |
| 2026-05-06 11:40 | 33.10217 | -7.52745 | 3124 ft | 239 kts | 51° |
| 2026-05-06 11:41 | 33.11454 | -7.51549 | 2973 ft | 225 kts | 20° |
| 2026-05-06 11:41 | 33.12976 | -7.51187 | 2979 ft | 226 kts | 352° |
| 2026-05-06 11:41 | 33.14494 | -7.51651 | 3012 ft | 226 kts | 345° |
| 2026-05-06 11:41 | 33.16011 | -7.52111 | 3028 ft | 225 kts | 344° |
| 2026-05-06 11:42 | 33.17450 | -7.52598 | 3024 ft | 205 kts | 343° |
| 2026-05-06 11:42 | 33.18751 | -7.53051 | 3017 ft | 193 kts | 343° |
| 2026-05-06 11:42 | 33.20033 | -7.53489 | 3008 ft | 190 kts | 343° |
| 2026-05-06 11:42 | 33.21299 | -7.53922 | 3008 ft | 189 kts | 343° |
| 2026-05-06 11:43 | 33.22567 | -7.54358 | 3009 ft | 190 kts | 344° |
| 2026-05-06 11:43 | 33.23810 | -7.54782 | 2973 ft | 178 kts | 344° |
| 2026-05-06 11:43 | 33.24967 | -7.55178 | 2774 ft | 169 kts | 344° |
| 2026-05-06 11:44 | 33.27207 | -7.55946 | 2331 ft | 158 kts | 344° |
| 2026-05-06 11:44 | 33.28231 | -7.56295 | 2123 ft | 151 kts | 344° |
| 2026-05-06 11:44 | 33.29215 | -7.56628 | 1919 ft | 147 kts | 343° |
| 2026-05-06 11:44 | 33.30202 | -7.56971 | 1744 ft | 151 kts | 343° |
| 2026-05-06 11:45 | 33.30795 | -7.57175 | 1604 ft | 147 kts | 343° |
| 2026-05-06 11:45 | 33.31648 | -7.57467 | 1426 ft | 151 kts | 343° |
| 2026-05-06 11:45 | 33.32640 | -7.57804 | 1224 ft | 147 kts | 343° |
| 2026-05-06 11:45 | 33.33632 | -7.58145 | 1024 ft | 148 kts | 344° |
| 2026-05-06 11:46 | 33.34625 | -7.58483 | 781 ft | 149 kts | 344° |
| 2026-05-06 11:46 | 33.35596 | -7.58815 | 658 ft | 133 kts | 343° |
| 2026-05-06 11:46 | 33.36271 | -7.59048 | 657 ft | 66 kts | 344° |
| 2026-05-06 11:46 | 33.36645 | -7.59177 | 657 ft | 52 kts | 344° |
| 2026-05-06 11:47 | 33.36962 | -7.59283 | 658 ft | 43 kts | 344° |
| 2026-05-06 11:47 | 33.37233 | -7.59378 | 659 ft | 38 kts | 343° |
| 2026-05-06 11:47 | 33.37482 | -7.59463 | 659 ft | 37 kts | 344° |
| 2026-05-06 11:47 | 33.37690 | -7.59526 | 657 ft | 16 kts | 9° |
| 2026-05-06 11:48 | 33.37719 | -7.59492 | 656 ft | 6 kts | 66° |
| 2026-05-06 11:48 | 33.37736 | -7.59423 | 657 ft | 11 kts | 75° |
| 2026-05-06 11:48 | 33.37760 | -7.59320 | 661 ft | 14 kts | 74° |
| 2026-05-06 11:48 | 33.37790 | -7.59194 | 653 ft | 18 kts | 74° |
| 2026-05-06 11:49 | 33.37826 | -7.59046 | 652 ft | 18 kts | 73° |
| 2026-05-06 11:49 | 33.37859 | -7.58916 | 657 ft | 16 kts | 73° |
| 2026-05-06 11:49 | 33.37894 | -7.58775 | 658 ft | 18 kts | 73° |
| 2026-05-06 11:49 | 33.37896 | -7.58636 | 658 ft | 16 kts | 116° |
| 2026-05-06 11:50 | 33.37829 | -7.58527 | 658 ft | 17 kts | 130° |
| 2026-05-06 11:50 | 33.37733 | -7.58462 | 658 ft | 15 kts | 165° |
| 2026-05-06 11:50 | 33.37636 | -7.58437 | 658 ft | 15 kts | 174° |
| 2026-05-06 11:50 | 33.37553 | -7.58422 | 658 ft | 9 kts | 166° |
| 2026-05-06 11:51 | 33.37488 | -7.58398 | 658 ft | 10 kts | 162° |
| 2026-05-06 11:51 | 33.37463 | -7.58374 | 658 ft | 3 kts | 115° |
| 2026-05-06 11:51 | 33.37463 | -7.58333 | 658 ft | 6 kts | 78° |
| 2026-05-06 11:51 | 33.37470 | -7.58304 | 658 ft | 3 kts | 76° |
| 2026-05-06 11:52 | 33.37471 | -7.58298 | 658 ft | 0 kts | 76° |